<?xml version="1.0" encoding="UTF-8" standalone="no" ?>
<gpx xmlns="http://www.topografix.com/GPX/1/1" xmlns:xsi="http://www.w3.org/2001/XMLSchema-instance" xsi:schemaLocation="http://www.topografix.com/GPX/1/1 http://www.topografix.com/GPX/1/1/gpx.xsd" version="1.1" creator="VisuGPX - https://www.visugpx.com">
  <metadata>
    <name>64 - VTT - Monein Abos Tarsacq piste cyclable et retour</name>
    <desc><![CDATA[Dur dur les dix derniers kilomètres]]></desc>
  </metadata>
  <trk>
    <name><![CDATA[ACTIVE LOG 004]]></name>
    <trkseg>
      <trkpt lat="43.32177" lon="-0.57062">
        <ele>131.3573</ele>
        <time>2013-08-14T09:19:07Z</time>
      </trkpt>
      <trkpt lat="43.32177" lon="-0.57062">
        <ele>131.3573</ele>
        <time>2013-08-14T09:19:08Z</time>
      </trkpt>
      <trkpt lat="43.32177" lon="-0.57062">
        <ele>131.837891</ele>
        <time>2013-08-14T09:19:10Z</time>
      </trkpt>
      <trkpt lat="43.32179" lon="-0.57063">
        <ele>132.318604</ele>
        <time>2013-08-14T09:19:44Z</time>
      </trkpt>
      <trkpt lat="43.3218" lon="-0.57064">
        <ele>132.318604</ele>
        <time>2013-08-14T09:19:46Z</time>
      </trkpt>
      <trkpt lat="43.32205" lon="-0.571">
        <ele>132.799316</ele>
        <time>2013-08-14T09:19:59Z</time>
      </trkpt>
      <trkpt lat="43.32221" lon="-0.57132">
        <ele>132.318604</ele>
        <time>2013-08-14T09:20:06Z</time>
      </trkpt>
      <trkpt lat="43.32233" lon="-0.5712">
        <ele>132.799316</ele>
        <time>2013-08-14T09:20:11Z</time>
      </trkpt>
      <trkpt lat="43.32246" lon="-0.5699">
        <ele>133.760498</ele>
        <time>2013-08-14T09:20:32Z</time>
      </trkpt>
      <trkpt lat="43.32262" lon="-0.56852">
        <ele>135.202515</ele>
        <time>2013-08-14T09:20:56Z</time>
      </trkpt>
      <trkpt lat="43.32276" lon="-0.56773">
        <ele>138.086548</ele>
        <time>2013-08-14T09:21:10Z</time>
      </trkpt>
      <trkpt lat="43.32292" lon="-0.56774">
        <ele>138.086548</ele>
        <time>2013-08-14T09:21:14Z</time>
      </trkpt>
      <trkpt lat="43.32312" lon="-0.56786">
        <ele>136.644653</ele>
        <time>2013-08-14T09:21:18Z</time>
      </trkpt>
      <trkpt lat="43.32323" lon="-0.56794">
        <ele>135.683105</ele>
        <time>2013-08-14T09:21:20Z</time>
      </trkpt>
      <trkpt lat="43.32411" lon="-0.5688">
        <ele>132.799316</ele>
        <time>2013-08-14T09:21:37Z</time>
      </trkpt>
      <trkpt lat="43.32498" lon="-0.5695">
        <ele>131.3573</ele>
        <time>2013-08-14T09:21:55Z</time>
      </trkpt>
      <trkpt lat="43.32513" lon="-0.5696">
        <ele>131.3573</ele>
        <time>2013-08-14T09:21:58Z</time>
      </trkpt>
      <trkpt lat="43.32523" lon="-0.56964">
        <ele>131.837891</ele>
        <time>2013-08-14T09:22:00Z</time>
      </trkpt>
      <trkpt lat="43.3262" lon="-0.56983">
        <ele>131.3573</ele>
        <time>2013-08-14T09:22:18Z</time>
      </trkpt>
      <trkpt lat="43.32711" lon="-0.57038">
        <ele>132.318604</ele>
        <time>2013-08-14T09:22:37Z</time>
      </trkpt>
      <trkpt lat="43.32781" lon="-0.57058">
        <ele>133.279907</ele>
        <time>2013-08-14T09:22:51Z</time>
      </trkpt>
      <trkpt lat="43.32835" lon="-0.57077">
        <ele>131.837891</ele>
        <time>2013-08-14T09:23:01Z</time>
      </trkpt>
      <trkpt lat="43.32923" lon="-0.57131">
        <ele>132.318604</ele>
        <time>2013-08-14T09:23:19Z</time>
      </trkpt>
      <trkpt lat="43.33013" lon="-0.57152">
        <ele>131.837891</ele>
        <time>2013-08-14T09:23:36Z</time>
      </trkpt>
      <trkpt lat="43.33104" lon="-0.57166">
        <ele>131.3573</ele>
        <time>2013-08-14T09:23:53Z</time>
      </trkpt>
      <trkpt lat="43.3312" lon="-0.57167">
        <ele>131.3573</ele>
        <time>2013-08-14T09:23:56Z</time>
      </trkpt>
      <trkpt lat="43.33159" lon="-0.57202">
        <ele>130.395996</ele>
        <time>2013-08-14T09:24:05Z</time>
      </trkpt>
      <trkpt lat="43.33255" lon="-0.57227">
        <ele>130.395996</ele>
        <time>2013-08-14T09:24:24Z</time>
      </trkpt>
      <trkpt lat="43.33332" lon="-0.57252">
        <ele>131.3573</ele>
        <time>2013-08-14T09:24:40Z</time>
      </trkpt>
      <trkpt lat="43.33346" lon="-0.57259">
        <ele>131.3573</ele>
        <time>2013-08-14T09:24:43Z</time>
      </trkpt>
      <trkpt lat="43.33406" lon="-0.57252">
        <ele>132.318604</ele>
        <time>2013-08-14T09:24:56Z</time>
      </trkpt>
      <trkpt lat="43.33433" lon="-0.57262">
        <ele>132.318604</ele>
        <time>2013-08-14T09:25:02Z</time>
      </trkpt>
      <trkpt lat="43.33524" lon="-0.57357">
        <ele>129.915283</ele>
        <time>2013-08-14T09:25:22Z</time>
      </trkpt>
      <trkpt lat="43.33635" lon="-0.57447">
        <ele>127.511963</ele>
        <time>2013-08-14T09:25:45Z</time>
      </trkpt>
      <trkpt lat="43.33721" lon="-0.57503">
        <ele>127.511963</ele>
        <time>2013-08-14T09:26:02Z</time>
      </trkpt>
      <trkpt lat="43.3382" lon="-0.57538">
        <ele>126.069946</ele>
        <time>2013-08-14T09:26:20Z</time>
      </trkpt>
      <trkpt lat="43.33911" lon="-0.57546">
        <ele>125.108765</ele>
        <time>2013-08-14T09:26:36Z</time>
      </trkpt>
      <trkpt lat="43.34027" lon="-0.57542">
        <ele>125.108765</ele>
        <time>2013-08-14T09:26:57Z</time>
      </trkpt>
      <trkpt lat="43.34091" lon="-0.57543">
        <ele>127.031372</ele>
        <time>2013-08-14T09:27:10Z</time>
      </trkpt>
      <trkpt lat="43.34164" lon="-0.5755">
        <ele>126.550659</ele>
        <time>2013-08-14T09:27:24Z</time>
      </trkpt>
      <trkpt lat="43.3424" lon="-0.57546">
        <ele>126.069946</ele>
        <time>2013-08-14T09:27:38Z</time>
      </trkpt>
      <trkpt lat="43.34254" lon="-0.57552">
        <ele>125.589355</ele>
        <time>2013-08-14T09:27:41Z</time>
      </trkpt>
      <trkpt lat="43.34266" lon="-0.5756">
        <ele>125.589355</ele>
        <time>2013-08-14T09:27:44Z</time>
      </trkpt>
      <trkpt lat="43.34275" lon="-0.57593">
        <ele>124.628052</ele>
        <time>2013-08-14T09:27:50Z</time>
      </trkpt>
      <trkpt lat="43.34241" lon="-0.57735">
        <ele>122.224731</ele>
        <time>2013-08-14T09:28:07Z</time>
      </trkpt>
      <trkpt lat="43.34239" lon="-0.5786">
        <ele>121.26355</ele>
        <time>2013-08-14T09:28:24Z</time>
      </trkpt>
      <trkpt lat="43.34247" lon="-0.57906">
        <ele>121.26355</ele>
        <time>2013-08-14T09:28:30Z</time>
      </trkpt>
      <trkpt lat="43.34252" lon="-0.57919">
        <ele>120.782837</ele>
        <time>2013-08-14T09:28:32Z</time>
      </trkpt>
      <trkpt lat="43.34301" lon="-0.58003">
        <ele>121.744141</ele>
        <time>2013-08-14T09:28:47Z</time>
      </trkpt>
      <trkpt lat="43.34329" lon="-0.58037">
        <ele>121.744141</ele>
        <time>2013-08-14T09:28:54Z</time>
      </trkpt>
      <trkpt lat="43.34339" lon="-0.58054">
        <ele>121.744141</ele>
        <time>2013-08-14T09:28:57Z</time>
      </trkpt>
      <trkpt lat="43.34349" lon="-0.58097">
        <ele>121.26355</ele>
        <time>2013-08-14T09:29:03Z</time>
      </trkpt>
      <trkpt lat="43.34343" lon="-0.58248">
        <ele>120.782837</ele>
        <time>2013-08-14T09:29:23Z</time>
      </trkpt>
      <trkpt lat="43.34342" lon="-0.58268">
        <ele>120.782837</ele>
        <time>2013-08-14T09:29:26Z</time>
      </trkpt>
      <trkpt lat="43.3436" lon="-0.5829">
        <ele>122.224731</ele>
        <time>2013-08-14T09:29:33Z</time>
      </trkpt>
      <trkpt lat="43.34438" lon="-0.58286">
        <ele>121.26355</ele>
        <time>2013-08-14T09:29:48Z</time>
      </trkpt>
      <trkpt lat="43.34518" lon="-0.58284">
        <ele>120.782837</ele>
        <time>2013-08-14T09:30:02Z</time>
      </trkpt>
      <trkpt lat="43.34607" lon="-0.58279">
        <ele>120.302124</ele>
        <time>2013-08-14T09:30:17Z</time>
      </trkpt>
      <trkpt lat="43.34702" lon="-0.58277">
        <ele>120.302124</ele>
        <time>2013-08-14T09:30:33Z</time>
      </trkpt>
      <trkpt lat="43.3473" lon="-0.58276">
        <ele>120.302124</ele>
        <time>2013-08-14T09:30:38Z</time>
      </trkpt>
      <trkpt lat="43.34834" lon="-0.58269">
        <ele>119.821411</ele>
        <time>2013-08-14T09:30:57Z</time>
      </trkpt>
      <trkpt lat="43.34939" lon="-0.58268">
        <ele>119.34082</ele>
        <time>2013-08-14T09:31:15Z</time>
      </trkpt>
      <trkpt lat="43.35058" lon="-0.58268">
        <ele>119.34082</ele>
        <time>2013-08-14T09:31:36Z</time>
      </trkpt>
      <trkpt lat="43.35158" lon="-0.58268">
        <ele>119.34082</ele>
        <time>2013-08-14T09:31:54Z</time>
      </trkpt>
      <trkpt lat="43.35269" lon="-0.5827">
        <ele>118.379395</ele>
        <time>2013-08-14T09:32:13Z</time>
      </trkpt>
      <trkpt lat="43.35406" lon="-0.58269">
        <ele>118.379395</ele>
        <time>2013-08-14T09:32:37Z</time>
      </trkpt>
      <trkpt lat="43.35516" lon="-0.58268">
        <ele>118.379395</ele>
        <time>2013-08-14T09:32:56Z</time>
      </trkpt>
      <trkpt lat="43.35612" lon="-0.58269">
        <ele>119.34082</ele>
        <time>2013-08-14T09:33:13Z</time>
      </trkpt>
      <trkpt lat="43.35641" lon="-0.58269">
        <ele>119.34082</ele>
        <time>2013-08-14T09:33:18Z</time>
      </trkpt>
      <trkpt lat="43.35659" lon="-0.58239">
        <ele>119.821411</ele>
        <time>2013-08-14T09:33:24Z</time>
      </trkpt>
      <trkpt lat="43.35653" lon="-0.582">
        <ele>119.34082</ele>
        <time>2013-08-14T09:33:29Z</time>
      </trkpt>
      <trkpt lat="43.35655" lon="-0.5817">
        <ele>119.821411</ele>
        <time>2013-08-14T09:33:33Z</time>
      </trkpt>
      <trkpt lat="43.35701" lon="-0.57997">
        <ele>119.821411</ele>
        <time>2013-08-14T09:33:57Z</time>
      </trkpt>
      <trkpt lat="43.35756" lon="-0.57797">
        <ele>119.34082</ele>
        <time>2013-08-14T09:34:24Z</time>
      </trkpt>
      <trkpt lat="43.35803" lon="-0.57633">
        <ele>119.821411</ele>
        <time>2013-08-14T09:34:47Z</time>
      </trkpt>
      <trkpt lat="43.35829" lon="-0.57532">
        <ele>118.860107</ele>
        <time>2013-08-14T09:35:01Z</time>
      </trkpt>
      <trkpt lat="43.35872" lon="-0.57384">
        <ele>119.34082</ele>
        <time>2013-08-14T09:35:22Z</time>
      </trkpt>
      <trkpt lat="43.35906" lon="-0.57261">
        <ele>119.821411</ele>
        <time>2013-08-14T09:35:39Z</time>
      </trkpt>
      <trkpt lat="43.35922" lon="-0.57186">
        <ele>121.26355</ele>
        <time>2013-08-14T09:35:49Z</time>
      </trkpt>
      <trkpt lat="43.35903" lon="-0.57038">
        <ele>120.782837</ele>
        <time>2013-08-14T09:36:08Z</time>
      </trkpt>
      <trkpt lat="43.35871" lon="-0.56835">
        <ele>120.782837</ele>
        <time>2013-08-14T09:36:34Z</time>
      </trkpt>
      <trkpt lat="43.35849" lon="-0.56683">
        <ele>121.26355</ele>
        <time>2013-08-14T09:36:54Z</time>
      </trkpt>
      <trkpt lat="43.35836" lon="-0.56563">
        <ele>122.705444</ele>
        <time>2013-08-14T09:37:10Z</time>
      </trkpt>
      <trkpt lat="43.35834" lon="-0.56548">
        <ele>123.186157</ele>
        <time>2013-08-14T09:37:12Z</time>
      </trkpt>
      <trkpt lat="43.35826" lon="-0.56516">
        <ele>123.186157</ele>
        <time>2013-08-14T09:37:16Z</time>
      </trkpt>
      <trkpt lat="43.35825" lon="-0.56484">
        <ele>123.666748</ele>
        <time>2013-08-14T09:37:20Z</time>
      </trkpt>
      <trkpt lat="43.35827" lon="-0.56469">
        <ele>123.186157</ele>
        <time>2013-08-14T09:37:22Z</time>
      </trkpt>
      <trkpt lat="43.35827" lon="-0.56393">
        <ele>123.666748</ele>
        <time>2013-08-14T09:37:32Z</time>
      </trkpt>
      <trkpt lat="43.35826" lon="-0.56372">
        <ele>123.186157</ele>
        <time>2013-08-14T09:37:35Z</time>
      </trkpt>
      <trkpt lat="43.35828" lon="-0.56317">
        <ele>123.186157</ele>
        <time>2013-08-14T09:37:43Z</time>
      </trkpt>
      <trkpt lat="43.35846" lon="-0.56243">
        <ele>123.666748</ele>
        <time>2013-08-14T09:37:54Z</time>
      </trkpt>
      <trkpt lat="43.35847" lon="-0.56204">
        <ele>123.666748</ele>
        <time>2013-08-14T09:38:00Z</time>
      </trkpt>
      <trkpt lat="43.35827" lon="-0.5611">
        <ele>123.666748</ele>
        <time>2013-08-14T09:38:14Z</time>
      </trkpt>
      <trkpt lat="43.35846" lon="-0.55977">
        <ele>123.666748</ele>
        <time>2013-08-14T09:38:32Z</time>
      </trkpt>
      <trkpt lat="43.35876" lon="-0.55808">
        <ele>123.186157</ele>
        <time>2013-08-14T09:38:55Z</time>
      </trkpt>
      <trkpt lat="43.35903" lon="-0.55649">
        <ele>123.666748</ele>
        <time>2013-08-14T09:39:16Z</time>
      </trkpt>
      <trkpt lat="43.35934" lon="-0.55478">
        <ele>123.666748</ele>
        <time>2013-08-14T09:39:40Z</time>
      </trkpt>
      <trkpt lat="43.35941" lon="-0.55439">
        <ele>123.666748</ele>
        <time>2013-08-14T09:39:46Z</time>
      </trkpt>
      <trkpt lat="43.35935" lon="-0.55376">
        <ele>123.186157</ele>
        <time>2013-08-14T09:39:55Z</time>
      </trkpt>
      <trkpt lat="43.3594" lon="-0.5535">
        <ele>124.147339</ele>
        <time>2013-08-14T09:39:59Z</time>
      </trkpt>
      <trkpt lat="43.35943" lon="-0.55329">
        <ele>124.628052</ele>
        <time>2013-08-14T09:40:02Z</time>
      </trkpt>
      <trkpt lat="43.35973" lon="-0.55289">
        <ele>125.108765</ele>
        <time>2013-08-14T09:40:11Z</time>
      </trkpt>
      <trkpt lat="43.36006" lon="-0.55266">
        <ele>124.147339</ele>
        <time>2013-08-14T09:40:19Z</time>
      </trkpt>
      <trkpt lat="43.36" lon="-0.55245">
        <ele>124.147339</ele>
        <time>2013-08-14T09:40:22Z</time>
      </trkpt>
      <trkpt lat="43.35988" lon="-0.55211">
        <ele>123.666748</ele>
        <time>2013-08-14T09:40:27Z</time>
      </trkpt>
      <trkpt lat="43.35988" lon="-0.55082">
        <ele>124.628052</ele>
        <time>2013-08-14T09:40:44Z</time>
      </trkpt>
      <trkpt lat="43.35996" lon="-0.54876">
        <ele>125.589355</ele>
        <time>2013-08-14T09:41:11Z</time>
      </trkpt>
      <trkpt lat="43.36005" lon="-0.5467">
        <ele>125.589355</ele>
        <time>2013-08-14T09:41:38Z</time>
      </trkpt>
      <trkpt lat="43.36013" lon="-0.54511">
        <ele>125.589355</ele>
        <time>2013-08-14T09:41:59Z</time>
      </trkpt>
      <trkpt lat="43.3602" lon="-0.54337">
        <ele>125.108765</ele>
        <time>2013-08-14T09:42:21Z</time>
      </trkpt>
      <trkpt lat="43.36021" lon="-0.54275">
        <ele>125.589355</ele>
        <time>2013-08-14T09:42:29Z</time>
      </trkpt>
      <trkpt lat="43.36008" lon="-0.5423">
        <ele>124.628052</ele>
        <time>2013-08-14T09:42:35Z</time>
      </trkpt>
      <trkpt lat="43.3594" lon="-0.54146">
        <ele>124.628052</ele>
        <time>2013-08-14T09:42:51Z</time>
      </trkpt>
      <trkpt lat="43.35914" lon="-0.54125">
        <ele>125.108765</ele>
        <time>2013-08-14T09:42:57Z</time>
      </trkpt>
      <trkpt lat="43.35896" lon="-0.54099">
        <ele>124.628052</ele>
        <time>2013-08-14T09:43:02Z</time>
      </trkpt>
      <trkpt lat="43.35888" lon="-0.54077">
        <ele>124.628052</ele>
        <time>2013-08-14T09:43:05Z</time>
      </trkpt>
      <trkpt lat="43.35865" lon="-0.53962">
        <ele>124.628052</ele>
        <time>2013-08-14T09:43:20Z</time>
      </trkpt>
      <trkpt lat="43.35814" lon="-0.53874">
        <ele>125.108765</ele>
        <time>2013-08-14T09:43:35Z</time>
      </trkpt>
      <trkpt lat="43.3575" lon="-0.53775">
        <ele>125.589355</ele>
        <time>2013-08-14T09:43:52Z</time>
      </trkpt>
      <trkpt lat="43.3572" lon="-0.53721">
        <ele>125.589355</ele>
        <time>2013-08-14T09:44:00Z</time>
      </trkpt>
      <trkpt lat="43.35713" lon="-0.53691">
        <ele>125.589355</ele>
        <time>2013-08-14T09:44:04Z</time>
      </trkpt>
      <trkpt lat="43.35702" lon="-0.53552">
        <ele>126.069946</ele>
        <time>2013-08-14T09:44:22Z</time>
      </trkpt>
      <trkpt lat="43.35695" lon="-0.53508">
        <ele>126.069946</ele>
        <time>2013-08-14T09:44:28Z</time>
      </trkpt>
      <trkpt lat="43.35633" lon="-0.53382">
        <ele>126.069946</ele>
        <time>2013-08-14T09:44:48Z</time>
      </trkpt>
      <trkpt lat="43.35571" lon="-0.53255">
        <ele>126.550659</ele>
        <time>2013-08-14T09:45:08Z</time>
      </trkpt>
      <trkpt lat="43.35545" lon="-0.53131">
        <ele>126.069946</ele>
        <time>2013-08-14T09:45:25Z</time>
      </trkpt>
      <trkpt lat="43.35528" lon="-0.53051">
        <ele>126.069946</ele>
        <time>2013-08-14T09:45:36Z</time>
      </trkpt>
      <trkpt lat="43.35512" lon="-0.53018">
        <ele>125.589355</ele>
        <time>2013-08-14T09:45:41Z</time>
      </trkpt>
      <trkpt lat="43.35507" lon="-0.5299">
        <ele>126.550659</ele>
        <time>2013-08-14T09:45:45Z</time>
      </trkpt>
      <trkpt lat="43.35509" lon="-0.52796">
        <ele>126.550659</ele>
        <time>2013-08-14T09:46:10Z</time>
      </trkpt>
      <trkpt lat="43.355" lon="-0.52728">
        <ele>127.031372</ele>
        <time>2013-08-14T09:46:19Z</time>
      </trkpt>
      <trkpt lat="43.35497" lon="-0.52697">
        <ele>126.550659</ele>
        <time>2013-08-14T09:46:23Z</time>
      </trkpt>
      <trkpt lat="43.35474" lon="-0.52567">
        <ele>127.031372</ele>
        <time>2013-08-14T09:46:40Z</time>
      </trkpt>
      <trkpt lat="43.35468" lon="-0.524">
        <ele>127.031372</ele>
        <time>2013-08-14T09:47:01Z</time>
      </trkpt>
      <trkpt lat="43.35498" lon="-0.52267">
        <ele>127.511963</ele>
        <time>2013-08-14T09:47:19Z</time>
      </trkpt>
      <trkpt lat="43.35503" lon="-0.52253">
        <ele>127.511963</ele>
        <time>2013-08-14T09:47:21Z</time>
      </trkpt>
      <trkpt lat="43.35522" lon="-0.52213">
        <ele>127.511963</ele>
        <time>2013-08-14T09:47:27Z</time>
      </trkpt>
      <trkpt lat="43.35551" lon="-0.52185">
        <ele>127.511963</ele>
        <time>2013-08-14T09:47:33Z</time>
      </trkpt>
      <trkpt lat="43.35584" lon="-0.52186">
        <ele>127.031372</ele>
        <time>2013-08-14T09:47:39Z</time>
      </trkpt>
      <trkpt lat="43.35596" lon="-0.52191">
        <ele>127.031372</ele>
        <time>2013-08-14T09:47:41Z</time>
      </trkpt>
      <trkpt lat="43.35636" lon="-0.52179">
        <ele>127.031372</ele>
        <time>2013-08-14T09:47:49Z</time>
      </trkpt>
      <trkpt lat="43.35644" lon="-0.52151">
        <ele>127.031372</ele>
        <time>2013-08-14T09:47:53Z</time>
      </trkpt>
      <trkpt lat="43.35647" lon="-0.52104">
        <ele>127.031372</ele>
        <time>2013-08-14T09:47:59Z</time>
      </trkpt>
      <trkpt lat="43.35611" lon="-0.52005">
        <ele>127.031372</ele>
        <time>2013-08-14T09:48:13Z</time>
      </trkpt>
      <trkpt lat="43.35562" lon="-0.51917">
        <ele>127.511963</ele>
        <time>2013-08-14T09:48:26Z</time>
      </trkpt>
      <trkpt lat="43.35543" lon="-0.519">
        <ele>127.511963</ele>
        <time>2013-08-14T09:48:30Z</time>
      </trkpt>
      <trkpt lat="43.35512" lon="-0.5186">
        <ele>127.511963</ele>
        <time>2013-08-14T09:48:37Z</time>
      </trkpt>
      <trkpt lat="43.35505" lon="-0.5185">
        <ele>127.511963</ele>
        <time>2013-08-14T09:48:39Z</time>
      </trkpt>
      <trkpt lat="43.35477" lon="-0.51818">
        <ele>128.473389</ele>
        <time>2013-08-14T09:48:46Z</time>
      </trkpt>
      <trkpt lat="43.35461" lon="-0.51788">
        <ele>128.473389</ele>
        <time>2013-08-14T09:48:51Z</time>
      </trkpt>
      <trkpt lat="43.35445" lon="-0.51767">
        <ele>129.434692</ele>
        <time>2013-08-14T09:48:55Z</time>
      </trkpt>
      <trkpt lat="43.35436" lon="-0.51739">
        <ele>128.954102</ele>
        <time>2013-08-14T09:48:59Z</time>
      </trkpt>
      <trkpt lat="43.35429" lon="-0.51678">
        <ele>130.876709</ele>
        <time>2013-08-14T09:49:09Z</time>
      </trkpt>
      <trkpt lat="43.35376" lon="-0.51635">
        <ele>129.434692</ele>
        <time>2013-08-14T09:49:20Z</time>
      </trkpt>
      <trkpt lat="43.35315" lon="-0.51599">
        <ele>129.434692</ele>
        <time>2013-08-14T09:49:32Z</time>
      </trkpt>
      <trkpt lat="43.35252" lon="-0.5152">
        <ele>129.434692</ele>
        <time>2013-08-14T09:49:46Z</time>
      </trkpt>
      <trkpt lat="43.35238" lon="-0.51501">
        <ele>128.954102</ele>
        <time>2013-08-14T09:49:49Z</time>
      </trkpt>
      <trkpt lat="43.35214" lon="-0.51499">
        <ele>128.473389</ele>
        <time>2013-08-14T09:49:54Z</time>
      </trkpt>
      <trkpt lat="43.3519" lon="-0.51511">
        <ele>129.915283</ele>
        <time>2013-08-14T09:49:59Z</time>
      </trkpt>
      <trkpt lat="43.35141" lon="-0.51516">
        <ele>130.395996</ele>
        <time>2013-08-14T09:50:09Z</time>
      </trkpt>
      <trkpt lat="43.35111" lon="-0.51499">
        <ele>129.915283</ele>
        <time>2013-08-14T09:50:15Z</time>
      </trkpt>
      <trkpt lat="43.35085" lon="-0.51468">
        <ele>129.915283</ele>
        <time>2013-08-14T09:50:21Z</time>
      </trkpt>
      <trkpt lat="43.35071" lon="-0.51435">
        <ele>130.876709</ele>
        <time>2013-08-14T09:50:26Z</time>
      </trkpt>
      <trkpt lat="43.35066" lon="-0.51413">
        <ele>130.876709</ele>
        <time>2013-08-14T09:50:29Z</time>
      </trkpt>
      <trkpt lat="43.35038" lon="-0.51403">
        <ele>130.395996</ele>
        <time>2013-08-14T09:50:35Z</time>
      </trkpt>
      <trkpt lat="43.35022" lon="-0.51417">
        <ele>129.915283</ele>
        <time>2013-08-14T09:50:38Z</time>
      </trkpt>
      <trkpt lat="43.34988" lon="-0.51416">
        <ele>130.876709</ele>
        <time>2013-08-14T09:50:44Z</time>
      </trkpt>
      <trkpt lat="43.34897" lon="-0.51353">
        <ele>130.876709</ele>
        <time>2013-08-14T09:51:02Z</time>
      </trkpt>
      <trkpt lat="43.34818" lon="-0.51298">
        <ele>130.395996</ele>
        <time>2013-08-14T09:51:18Z</time>
      </trkpt>
      <trkpt lat="43.3477" lon="-0.51281">
        <ele>131.3573</ele>
        <time>2013-08-14T09:51:27Z</time>
      </trkpt>
      <trkpt lat="43.34739" lon="-0.51266">
        <ele>131.837891</ele>
        <time>2013-08-14T09:51:33Z</time>
      </trkpt>
      <trkpt lat="43.34709" lon="-0.51258">
        <ele>131.3573</ele>
        <time>2013-08-14T09:51:38Z</time>
      </trkpt>
      <trkpt lat="43.34696" lon="-0.51235">
        <ele>130.876709</ele>
        <time>2013-08-14T09:51:43Z</time>
      </trkpt>
      <trkpt lat="43.3473" lon="-0.5113">
        <ele>132.318604</ele>
        <time>2013-08-14T09:51:58Z</time>
      </trkpt>
      <trkpt lat="43.34735" lon="-0.51101">
        <ele>131.837891</ele>
        <time>2013-08-14T09:52:02Z</time>
      </trkpt>
      <trkpt lat="43.34745" lon="-0.51061">
        <ele>132.318604</ele>
        <time>2013-08-14T09:52:08Z</time>
      </trkpt>
      <trkpt lat="43.34751" lon="-0.51041">
        <ele>131.837891</ele>
        <time>2013-08-14T09:52:11Z</time>
      </trkpt>
      <trkpt lat="43.34747" lon="-0.51011">
        <ele>131.3573</ele>
        <time>2013-08-14T09:52:15Z</time>
      </trkpt>
      <trkpt lat="43.34739" lon="-0.50998">
        <ele>131.3573</ele>
        <time>2013-08-14T09:52:17Z</time>
      </trkpt>
      <trkpt lat="43.3472" lon="-0.50955">
        <ele>131.3573</ele>
        <time>2013-08-14T09:52:23Z</time>
      </trkpt>
      <trkpt lat="43.34699" lon="-0.50921">
        <ele>131.837891</ele>
        <time>2013-08-14T09:52:29Z</time>
      </trkpt>
      <trkpt lat="43.34685" lon="-0.5089">
        <ele>132.318604</ele>
        <time>2013-08-14T09:52:34Z</time>
      </trkpt>
      <trkpt lat="43.34671" lon="-0.50868">
        <ele>131.3573</ele>
        <time>2013-08-14T09:52:38Z</time>
      </trkpt>
      <trkpt lat="43.34633" lon="-0.50823">
        <ele>131.837891</ele>
        <time>2013-08-14T09:52:47Z</time>
      </trkpt>
      <trkpt lat="43.34603" lon="-0.50755">
        <ele>132.318604</ele>
        <time>2013-08-14T09:52:57Z</time>
      </trkpt>
      <trkpt lat="43.34576" lon="-0.50718">
        <ele>133.760498</ele>
        <time>2013-08-14T09:53:04Z</time>
      </trkpt>
      <trkpt lat="43.3455" lon="-0.50686">
        <ele>133.279907</ele>
        <time>2013-08-14T09:53:10Z</time>
      </trkpt>
      <trkpt lat="43.3449" lon="-0.50603">
        <ele>133.760498</ele>
        <time>2013-08-14T09:53:25Z</time>
      </trkpt>
      <trkpt lat="43.34452" lon="-0.50569">
        <ele>134.241211</ele>
        <time>2013-08-14T09:53:33Z</time>
      </trkpt>
      <trkpt lat="43.34436" lon="-0.50552">
        <ele>134.241211</ele>
        <time>2013-08-14T09:53:36Z</time>
      </trkpt>
      <trkpt lat="43.34421" lon="-0.50527">
        <ele>134.241211</ele>
        <time>2013-08-14T09:53:40Z</time>
      </trkpt>
      <trkpt lat="43.34398" lon="-0.50505">
        <ele>134.721924</ele>
        <time>2013-08-14T09:53:45Z</time>
      </trkpt>
      <trkpt lat="43.34348" lon="-0.50487">
        <ele>133.760498</ele>
        <time>2013-08-14T09:53:54Z</time>
      </trkpt>
      <trkpt lat="43.34328" lon="-0.50471">
        <ele>134.721924</ele>
        <time>2013-08-14T09:53:58Z</time>
      </trkpt>
      <trkpt lat="43.343" lon="-0.50434">
        <ele>135.202515</ele>
        <time>2013-08-14T09:54:05Z</time>
      </trkpt>
      <trkpt lat="43.34279" lon="-0.50403">
        <ele>133.760498</ele>
        <time>2013-08-14T09:54:10Z</time>
      </trkpt>
      <trkpt lat="43.34265" lon="-0.50388">
        <ele>133.760498</ele>
        <time>2013-08-14T09:54:13Z</time>
      </trkpt>
      <trkpt lat="43.34255" lon="-0.5038">
        <ele>133.760498</ele>
        <time>2013-08-14T09:54:15Z</time>
      </trkpt>
      <trkpt lat="43.34189" lon="-0.50332">
        <ele>135.683105</ele>
        <time>2013-08-14T09:54:29Z</time>
      </trkpt>
      <trkpt lat="43.34168" lon="-0.50321">
        <ele>135.202515</ele>
        <time>2013-08-14T09:54:33Z</time>
      </trkpt>
      <trkpt lat="43.34116" lon="-0.5026">
        <ele>135.683105</ele>
        <time>2013-08-14T09:54:45Z</time>
      </trkpt>
      <trkpt lat="43.34061" lon="-0.50191">
        <ele>136.644653</ele>
        <time>2013-08-14T09:54:58Z</time>
      </trkpt>
      <trkpt lat="43.34024" lon="-0.50149">
        <ele>133.279907</ele>
        <time>2013-08-14T09:55:05Z</time>
      </trkpt>
      <trkpt lat="43.34019" lon="-0.50144">
        <ele>134.721924</ele>
        <time>2013-08-14T09:55:06Z</time>
      </trkpt>
      <trkpt lat="43.34002" lon="-0.50118">
        <ele>134.241211</ele>
        <time>2013-08-14T09:55:10Z</time>
      </trkpt>
      <trkpt lat="43.33969" lon="-0.50006">
        <ele>135.202515</ele>
        <time>2013-08-14T09:55:25Z</time>
      </trkpt>
      <trkpt lat="43.33959" lon="-0.49965">
        <ele>134.241211</ele>
        <time>2013-08-14T09:55:31Z</time>
      </trkpt>
      <trkpt lat="43.33929" lon="-0.49908">
        <ele>137.125244</ele>
        <time>2013-08-14T09:55:41Z</time>
      </trkpt>
      <trkpt lat="43.3391" lon="-0.49887">
        <ele>137.125244</ele>
        <time>2013-08-14T09:55:46Z</time>
      </trkpt>
      <trkpt lat="43.33896" lon="-0.49864">
        <ele>137.125244</ele>
        <time>2013-08-14T09:55:50Z</time>
      </trkpt>
      <trkpt lat="43.33885" lon="-0.49834">
        <ele>136.16394</ele>
        <time>2013-08-14T09:55:54Z</time>
      </trkpt>
      <trkpt lat="43.33866" lon="-0.49793">
        <ele>136.644653</ele>
        <time>2013-08-14T09:56:02Z</time>
      </trkpt>
      <trkpt lat="43.33873" lon="-0.49773">
        <ele>137.125244</ele>
        <time>2013-08-14T09:56:07Z</time>
      </trkpt>
      <trkpt lat="43.33836" lon="-0.49672">
        <ele>136.644653</ele>
        <time>2013-08-14T09:56:22Z</time>
      </trkpt>
      <trkpt lat="43.33829" lon="-0.49645">
        <ele>137.125244</ele>
        <time>2013-08-14T09:56:26Z</time>
      </trkpt>
      <trkpt lat="43.33826" lon="-0.49617">
        <ele>136.644653</ele>
        <time>2013-08-14T09:56:30Z</time>
      </trkpt>
      <trkpt lat="43.33824" lon="-0.49587">
        <ele>136.644653</ele>
        <time>2013-08-14T09:56:34Z</time>
      </trkpt>
      <trkpt lat="43.33814" lon="-0.49559">
        <ele>137.125244</ele>
        <time>2013-08-14T09:56:38Z</time>
      </trkpt>
      <trkpt lat="43.33807" lon="-0.49545">
        <ele>136.644653</ele>
        <time>2013-08-14T09:56:40Z</time>
      </trkpt>
      <trkpt lat="43.33793" lon="-0.49518">
        <ele>137.605835</ele>
        <time>2013-08-14T09:56:44Z</time>
      </trkpt>
      <trkpt lat="43.33771" lon="-0.49473">
        <ele>136.644653</ele>
        <time>2013-08-14T09:56:51Z</time>
      </trkpt>
      <trkpt lat="43.33751" lon="-0.49461">
        <ele>137.125244</ele>
        <time>2013-08-14T09:56:55Z</time>
      </trkpt>
      <trkpt lat="43.33715" lon="-0.49414">
        <ele>137.605835</ele>
        <time>2013-08-14T09:57:04Z</time>
      </trkpt>
      <trkpt lat="43.33711" lon="-0.49399">
        <ele>137.125244</ele>
        <time>2013-08-14T09:57:06Z</time>
      </trkpt>
      <trkpt lat="43.33698" lon="-0.49331">
        <ele>137.605835</ele>
        <time>2013-08-14T09:57:15Z</time>
      </trkpt>
      <trkpt lat="43.33659" lon="-0.49287">
        <ele>138.567261</ele>
        <time>2013-08-14T09:57:24Z</time>
      </trkpt>
      <trkpt lat="43.33648" lon="-0.49283">
        <ele>138.086548</ele>
        <time>2013-08-14T09:57:26Z</time>
      </trkpt>
      <trkpt lat="43.33626" lon="-0.49249">
        <ele>138.567261</ele>
        <time>2013-08-14T09:57:32Z</time>
      </trkpt>
      <trkpt lat="43.33621" lon="-0.49211">
        <ele>139.047852</ele>
        <time>2013-08-14T09:57:37Z</time>
      </trkpt>
      <trkpt lat="43.33605" lon="-0.49174">
        <ele>138.086548</ele>
        <time>2013-08-14T09:57:43Z</time>
      </trkpt>
      <trkpt lat="43.33575" lon="-0.4914">
        <ele>138.567261</ele>
        <time>2013-08-14T09:57:50Z</time>
      </trkpt>
      <trkpt lat="43.33517" lon="-0.49035">
        <ele>139.047852</ele>
        <time>2013-08-14T09:58:08Z</time>
      </trkpt>
      <trkpt lat="43.33478" lon="-0.48919">
        <ele>139.528442</ele>
        <time>2013-08-14T09:58:25Z</time>
      </trkpt>
      <trkpt lat="43.33452" lon="-0.48827">
        <ele>140.970459</ele>
        <time>2013-08-14T09:58:38Z</time>
      </trkpt>
      <trkpt lat="43.33435" lon="-0.48813">
        <ele>140.489868</ele>
        <time>2013-08-14T09:58:43Z</time>
      </trkpt>
      <trkpt lat="43.33382" lon="-0.48849">
        <ele>141.45105</ele>
        <time>2013-08-14T09:58:55Z</time>
      </trkpt>
      <trkpt lat="43.33357" lon="-0.48845">
        <ele>141.45105</ele>
        <time>2013-08-14T09:59:00Z</time>
      </trkpt>
      <trkpt lat="43.33314" lon="-0.48798">
        <ele>140.489868</ele>
        <time>2013-08-14T09:59:10Z</time>
      </trkpt>
      <trkpt lat="43.33295" lon="-0.48748">
        <ele>140.970459</ele>
        <time>2013-08-14T09:59:17Z</time>
      </trkpt>
      <trkpt lat="43.33225" lon="-0.48653">
        <ele>140.970459</ele>
        <time>2013-08-14T09:59:34Z</time>
      </trkpt>
      <trkpt lat="43.33208" lon="-0.48631">
        <ele>140.489868</ele>
        <time>2013-08-14T09:59:38Z</time>
      </trkpt>
      <trkpt lat="43.33186" lon="-0.48577">
        <ele>140.970459</ele>
        <time>2013-08-14T09:59:46Z</time>
      </trkpt>
      <trkpt lat="43.33185" lon="-0.48549">
        <ele>141.45105</ele>
        <time>2013-08-14T09:59:50Z</time>
      </trkpt>
      <trkpt lat="43.33192" lon="-0.48515">
        <ele>141.45105</ele>
        <time>2013-08-14T09:59:55Z</time>
      </trkpt>
      <trkpt lat="43.33194" lon="-0.48484">
        <ele>140.489868</ele>
        <time>2013-08-14T09:59:59Z</time>
      </trkpt>
      <trkpt lat="43.33178" lon="-0.4844">
        <ele>140.970459</ele>
        <time>2013-08-14T10:00:06Z</time>
      </trkpt>
      <trkpt lat="43.33169" lon="-0.48433">
        <ele>141.45105</ele>
        <time>2013-08-14T10:00:08Z</time>
      </trkpt>
      <trkpt lat="43.33131" lon="-0.4842">
        <ele>142.893066</ele>
        <time>2013-08-14T10:00:16Z</time>
      </trkpt>
      <trkpt lat="43.33112" lon="-0.48405">
        <ele>141.931763</ele>
        <time>2013-08-14T10:00:20Z</time>
      </trkpt>
      <trkpt lat="43.331" lon="-0.48381">
        <ele>143.373657</ele>
        <time>2013-08-14T10:00:24Z</time>
      </trkpt>
      <trkpt lat="43.33096" lon="-0.48367">
        <ele>142.412476</ele>
        <time>2013-08-14T10:00:26Z</time>
      </trkpt>
      <trkpt lat="43.33083" lon="-0.48342">
        <ele>142.893066</ele>
        <time>2013-08-14T10:00:30Z</time>
      </trkpt>
      <trkpt lat="43.33055" lon="-0.48286">
        <ele>144.335205</ele>
        <time>2013-08-14T10:00:39Z</time>
      </trkpt>
      <trkpt lat="43.33049" lon="-0.48263">
        <ele>142.893066</ele>
        <time>2013-08-14T10:00:43Z</time>
      </trkpt>
      <trkpt lat="43.33049" lon="-0.48238">
        <ele>144.335205</ele>
        <time>2013-08-14T10:00:47Z</time>
      </trkpt>
      <trkpt lat="43.33056" lon="-0.48195">
        <ele>143.85437</ele>
        <time>2013-08-14T10:00:53Z</time>
      </trkpt>
      <trkpt lat="43.33049" lon="-0.48129">
        <ele>143.85437</ele>
        <time>2013-08-14T10:01:02Z</time>
      </trkpt>
      <trkpt lat="43.3304" lon="-0.48091">
        <ele>145.296387</ele>
        <time>2013-08-14T10:01:07Z</time>
      </trkpt>
      <trkpt lat="43.33031" lon="-0.48071">
        <ele>143.85437</ele>
        <time>2013-08-14T10:01:10Z</time>
      </trkpt>
      <trkpt lat="43.33027" lon="-0.48065">
        <ele>144.335205</ele>
        <time>2013-08-14T10:01:11Z</time>
      </trkpt>
      <trkpt lat="43.33016" lon="-0.48047">
        <ele>143.85437</ele>
        <time>2013-08-14T10:01:14Z</time>
      </trkpt>
      <trkpt lat="43.33007" lon="-0.48028">
        <ele>143.373657</ele>
        <time>2013-08-14T10:01:17Z</time>
      </trkpt>
      <trkpt lat="43.32997" lon="-0.47992">
        <ele>145.296387</ele>
        <time>2013-08-14T10:01:22Z</time>
      </trkpt>
      <trkpt lat="43.32988" lon="-0.47951">
        <ele>143.85437</ele>
        <time>2013-08-14T10:01:28Z</time>
      </trkpt>
      <trkpt lat="43.32942" lon="-0.47851">
        <ele>144.815796</ele>
        <time>2013-08-14T10:01:43Z</time>
      </trkpt>
      <trkpt lat="43.32901" lon="-0.47741">
        <ele>144.815796</ele>
        <time>2013-08-14T10:01:58Z</time>
      </trkpt>
      <trkpt lat="43.32853" lon="-0.47618">
        <ele>145.296387</ele>
        <time>2013-08-14T10:02:15Z</time>
      </trkpt>
      <trkpt lat="43.32834" lon="-0.4757">
        <ele>145.296387</ele>
        <time>2013-08-14T10:02:22Z</time>
      </trkpt>
      <trkpt lat="43.32842" lon="-0.47527">
        <ele>145.296387</ele>
        <time>2013-08-14T10:02:29Z</time>
      </trkpt>
      <trkpt lat="43.32861" lon="-0.47515">
        <ele>145.7771</ele>
        <time>2013-08-14T10:02:33Z</time>
      </trkpt>
      <trkpt lat="43.32865" lon="-0.47487">
        <ele>145.296387</ele>
        <time>2013-08-14T10:02:38Z</time>
      </trkpt>
      <trkpt lat="43.32833" lon="-0.4738">
        <ele>145.296387</ele>
        <time>2013-08-14T10:02:52Z</time>
      </trkpt>
      <trkpt lat="43.32813" lon="-0.47229">
        <ele>145.296387</ele>
        <time>2013-08-14T10:03:11Z</time>
      </trkpt>
      <trkpt lat="43.32815" lon="-0.47122">
        <ele>146.257813</ele>
        <time>2013-08-14T10:03:25Z</time>
      </trkpt>
      <trkpt lat="43.32809" lon="-0.4706">
        <ele>147.218994</ele>
        <time>2013-08-14T10:03:34Z</time>
      </trkpt>
      <trkpt lat="43.32814" lon="-0.47031">
        <ele>146.257813</ele>
        <time>2013-08-14T10:03:38Z</time>
      </trkpt>
      <trkpt lat="43.32841" lon="-0.46956">
        <ele>146.738403</ele>
        <time>2013-08-14T10:03:49Z</time>
      </trkpt>
      <trkpt lat="43.3288" lon="-0.46887">
        <ele>146.257813</ele>
        <time>2013-08-14T10:04:00Z</time>
      </trkpt>
      <trkpt lat="43.32941" lon="-0.46828">
        <ele>147.218994</ele>
        <time>2013-08-14T10:04:13Z</time>
      </trkpt>
      <trkpt lat="43.32996" lon="-0.46755">
        <ele>146.738403</ele>
        <time>2013-08-14T10:04:26Z</time>
      </trkpt>
      <trkpt lat="43.33039" lon="-0.46716">
        <ele>146.738403</ele>
        <time>2013-08-14T10:04:35Z</time>
      </trkpt>
      <trkpt lat="43.33068" lon="-0.46674">
        <ele>146.738403</ele>
        <time>2013-08-14T10:04:42Z</time>
      </trkpt>
      <trkpt lat="43.33075" lon="-0.46654">
        <ele>146.738403</ele>
        <time>2013-08-14T10:04:45Z</time>
      </trkpt>
      <trkpt lat="43.3309" lon="-0.46633">
        <ele>147.699707</ele>
        <time>2013-08-14T10:04:49Z</time>
      </trkpt>
      <trkpt lat="43.33099" lon="-0.46627">
        <ele>146.738403</ele>
        <time>2013-08-14T10:04:51Z</time>
      </trkpt>
      <trkpt lat="43.33115" lon="-0.46572">
        <ele>146.257813</ele>
        <time>2013-08-14T10:04:59Z</time>
      </trkpt>
      <trkpt lat="43.33097" lon="-0.4654">
        <ele>146.257813</ele>
        <time>2013-08-14T10:05:04Z</time>
      </trkpt>
      <trkpt lat="43.33086" lon="-0.46513">
        <ele>147.218994</ele>
        <time>2013-08-14T10:05:09Z</time>
      </trkpt>
      <trkpt lat="43.33059" lon="-0.46469">
        <ele>147.218994</ele>
        <time>2013-08-14T10:05:17Z</time>
      </trkpt>
      <trkpt lat="43.33042" lon="-0.46452">
        <ele>147.699707</ele>
        <time>2013-08-14T10:05:21Z</time>
      </trkpt>
      <trkpt lat="43.32999" lon="-0.46433">
        <ele>147.699707</ele>
        <time>2013-08-14T10:05:29Z</time>
      </trkpt>
      <trkpt lat="43.32981" lon="-0.46418">
        <ele>147.699707</ele>
        <time>2013-08-14T10:05:33Z</time>
      </trkpt>
      <trkpt lat="43.32929" lon="-0.46368">
        <ele>148.18042</ele>
        <time>2013-08-14T10:05:44Z</time>
      </trkpt>
      <trkpt lat="43.32859" lon="-0.46278">
        <ele>148.18042</ele>
        <time>2013-08-14T10:06:01Z</time>
      </trkpt>
      <trkpt lat="43.32788" lon="-0.46183">
        <ele>148.18042</ele>
        <time>2013-08-14T10:06:18Z</time>
      </trkpt>
      <trkpt lat="43.32738" lon="-0.46091">
        <ele>147.699707</ele>
        <time>2013-08-14T10:06:32Z</time>
      </trkpt>
      <trkpt lat="43.32667" lon="-0.45986">
        <ele>148.661011</ele>
        <time>2013-08-14T10:06:50Z</time>
      </trkpt>
      <trkpt lat="43.32572" lon="-0.45892">
        <ele>149.141602</ele>
        <time>2013-08-14T10:07:10Z</time>
      </trkpt>
      <trkpt lat="43.32479" lon="-0.45796">
        <ele>149.141602</ele>
        <time>2013-08-14T10:07:29Z</time>
      </trkpt>
      <trkpt lat="43.32434" lon="-0.4574">
        <ele>150.103027</ele>
        <time>2013-08-14T10:07:39Z</time>
      </trkpt>
      <trkpt lat="43.32359" lon="-0.45694">
        <ele>150.583618</ele>
        <time>2013-08-14T10:07:53Z</time>
      </trkpt>
      <trkpt lat="43.32271" lon="-0.45632">
        <ele>151.064209</ele>
        <time>2013-08-14T10:08:09Z</time>
      </trkpt>
      <trkpt lat="43.32164" lon="-0.45558">
        <ele>151.064209</ele>
        <time>2013-08-14T10:08:28Z</time>
      </trkpt>
      <trkpt lat="43.3206" lon="-0.45511">
        <ele>151.064209</ele>
        <time>2013-08-14T10:08:46Z</time>
      </trkpt>
      <trkpt lat="43.31964" lon="-0.45459">
        <ele>151.064209</ele>
        <time>2013-08-14T10:09:03Z</time>
      </trkpt>
      <trkpt lat="43.31906" lon="-0.45418">
        <ele>151.544922</ele>
        <time>2013-08-14T10:09:14Z</time>
      </trkpt>
      <trkpt lat="43.3189" lon="-0.45393">
        <ele>151.064209</ele>
        <time>2013-08-14T10:09:18Z</time>
      </trkpt>
      <trkpt lat="43.31858" lon="-0.45348">
        <ele>150.583618</ele>
        <time>2013-08-14T10:09:25Z</time>
      </trkpt>
      <trkpt lat="43.31814" lon="-0.45308">
        <ele>151.064209</ele>
        <time>2013-08-14T10:09:34Z</time>
      </trkpt>
      <trkpt lat="43.3181" lon="-0.45294">
        <ele>151.064209</ele>
        <time>2013-08-14T10:09:36Z</time>
      </trkpt>
      <trkpt lat="43.31806" lon="-0.45279">
        <ele>151.544922</ele>
        <time>2013-08-14T10:09:38Z</time>
      </trkpt>
      <trkpt lat="43.31805" lon="-0.45258">
        <ele>151.064209</ele>
        <time>2013-08-14T10:09:41Z</time>
      </trkpt>
      <trkpt lat="43.31779" lon="-0.45217">
        <ele>151.064209</ele>
        <time>2013-08-14T10:09:48Z</time>
      </trkpt>
      <trkpt lat="43.31774" lon="-0.45214">
        <ele>151.064209</ele>
        <time>2013-08-14T10:09:49Z</time>
      </trkpt>
      <trkpt lat="43.3166" lon="-0.45181">
        <ele>153.467651</ele>
        <time>2013-08-14T10:10:08Z</time>
      </trkpt>
      <trkpt lat="43.31624" lon="-0.4519">
        <ele>152.025757</ele>
        <time>2013-08-14T10:10:14Z</time>
      </trkpt>
      <trkpt lat="43.3157" lon="-0.45195">
        <ele>152.025757</ele>
        <time>2013-08-14T10:10:23Z</time>
      </trkpt>
      <trkpt lat="43.3156" lon="-0.45194">
        <ele>152.506348</ele>
        <time>2013-08-14T10:10:25Z</time>
      </trkpt>
      <trkpt lat="43.31541" lon="-0.45183">
        <ele>152.986938</ele>
        <time>2013-08-14T10:10:29Z</time>
      </trkpt>
      <trkpt lat="43.31506" lon="-0.45166">
        <ele>152.506348</ele>
        <time>2013-08-14T10:10:35Z</time>
      </trkpt>
      <trkpt lat="43.31493" lon="-0.45161">
        <ele>152.506348</ele>
        <time>2013-08-14T10:10:37Z</time>
      </trkpt>
      <trkpt lat="43.31481" lon="-0.45161">
        <ele>153.467651</ele>
        <time>2013-08-14T10:10:39Z</time>
      </trkpt>
      <trkpt lat="43.31432" lon="-0.45134">
        <ele>152.506348</ele>
        <time>2013-08-14T10:10:48Z</time>
      </trkpt>
      <trkpt lat="43.31354" lon="-0.45114">
        <ele>151.544922</ele>
        <time>2013-08-14T10:11:00Z</time>
      </trkpt>
      <trkpt lat="43.31258" lon="-0.45056">
        <ele>151.064209</ele>
        <time>2013-08-14T10:11:18Z</time>
      </trkpt>
      <trkpt lat="43.31243" lon="-0.45047">
        <ele>150.583618</ele>
        <time>2013-08-14T10:11:21Z</time>
      </trkpt>
      <trkpt lat="43.3118" lon="-0.45">
        <ele>151.544922</ele>
        <time>2013-08-14T10:11:34Z</time>
      </trkpt>
      <trkpt lat="43.31079" lon="-0.4492">
        <ele>151.544922</ele>
        <time>2013-08-14T10:11:54Z</time>
      </trkpt>
      <trkpt lat="43.30997" lon="-0.44851">
        <ele>151.544922</ele>
        <time>2013-08-14T10:12:11Z</time>
      </trkpt>
      <trkpt lat="43.30949" lon="-0.44773">
        <ele>152.025757</ele>
        <time>2013-08-14T10:12:24Z</time>
      </trkpt>
      <trkpt lat="43.30945" lon="-0.44767">
        <ele>151.544922</ele>
        <time>2013-08-14T10:12:25Z</time>
      </trkpt>
      <trkpt lat="43.30912" lon="-0.44742">
        <ele>152.025757</ele>
        <time>2013-08-14T10:12:32Z</time>
      </trkpt>
      <trkpt lat="43.30902" lon="-0.44733">
        <ele>153.467651</ele>
        <time>2013-08-14T10:12:34Z</time>
      </trkpt>
      <trkpt lat="43.30872" lon="-0.44686">
        <ele>152.506348</ele>
        <time>2013-08-14T10:12:42Z</time>
      </trkpt>
      <trkpt lat="43.3085" lon="-0.44649">
        <ele>153.467651</ele>
        <time>2013-08-14T10:12:48Z</time>
      </trkpt>
      <trkpt lat="43.30841" lon="-0.44642">
        <ele>154.428955</ele>
        <time>2013-08-14T10:12:50Z</time>
      </trkpt>
      <trkpt lat="43.30821" lon="-0.44594">
        <ele>154.428955</ele>
        <time>2013-08-14T10:12:59Z</time>
      </trkpt>
      <trkpt lat="43.30807" lon="-0.44567">
        <ele>152.986938</ele>
        <time>2013-08-14T10:13:03Z</time>
      </trkpt>
      <trkpt lat="43.30804" lon="-0.44561">
        <ele>152.986938</ele>
        <time>2013-08-14T10:13:04Z</time>
      </trkpt>
      <trkpt lat="43.30796" lon="-0.44541">
        <ele>152.506348</ele>
        <time>2013-08-14T10:13:07Z</time>
      </trkpt>
      <trkpt lat="43.30766" lon="-0.44394">
        <ele>152.506348</ele>
        <time>2013-08-14T10:13:27Z</time>
      </trkpt>
      <trkpt lat="43.30737" lon="-0.4428">
        <ele>153.467651</ele>
        <time>2013-08-14T10:13:43Z</time>
      </trkpt>
      <trkpt lat="43.30704" lon="-0.44196">
        <ele>153.467651</ele>
        <time>2013-08-14T10:13:56Z</time>
      </trkpt>
      <trkpt lat="43.30649" lon="-0.44106">
        <ele>153.948364</ele>
        <time>2013-08-14T10:14:12Z</time>
      </trkpt>
      <trkpt lat="43.30583" lon="-0.44003">
        <ele>154.909546</ele>
        <time>2013-08-14T10:14:30Z</time>
      </trkpt>
      <trkpt lat="43.30531" lon="-0.43911">
        <ele>155.870972</ele>
        <time>2013-08-14T10:14:46Z</time>
      </trkpt>
      <trkpt lat="43.30528" lon="-0.43906">
        <ele>156.351563</ele>
        <time>2013-08-14T10:14:47Z</time>
      </trkpt>
      <trkpt lat="43.30489" lon="-0.43832">
        <ele>156.832153</ele>
        <time>2013-08-14T10:15:00Z</time>
      </trkpt>
      <trkpt lat="43.3048" lon="-0.43785">
        <ele>157.312866</ele>
        <time>2013-08-14T10:15:07Z</time>
      </trkpt>
      <trkpt lat="43.30474" lon="-0.43766">
        <ele>157.312866</ele>
        <time>2013-08-14T10:15:10Z</time>
      </trkpt>
      <trkpt lat="43.30465" lon="-0.43749">
        <ele>157.312866</ele>
        <time>2013-08-14T10:15:13Z</time>
      </trkpt>
      <trkpt lat="43.30429" lon="-0.43662">
        <ele>158.754761</ele>
        <time>2013-08-14T10:15:26Z</time>
      </trkpt>
      <trkpt lat="43.30413" lon="-0.43618">
        <ele>158.27417</ele>
        <time>2013-08-14T10:15:32Z</time>
      </trkpt>
      <trkpt lat="43.30397" lon="-0.43581">
        <ele>158.27417</ele>
        <time>2013-08-14T10:15:38Z</time>
      </trkpt>
      <trkpt lat="43.30371" lon="-0.43539">
        <ele>158.754761</ele>
        <time>2013-08-14T10:15:46Z</time>
      </trkpt>
      <trkpt lat="43.30365" lon="-0.43515">
        <ele>157.312866</ele>
        <time>2013-08-14T10:15:49Z</time>
      </trkpt>
      <trkpt lat="43.30376" lon="-0.4346">
        <ele>156.351563</ele>
        <time>2013-08-14T10:15:56Z</time>
      </trkpt>
      <trkpt lat="43.30374" lon="-0.43452">
        <ele>155.870972</ele>
        <time>2013-08-14T10:15:57Z</time>
      </trkpt>
      <trkpt lat="43.3032" lon="-0.43332">
        <ele>156.832153</ele>
        <time>2013-08-14T10:16:15Z</time>
      </trkpt>
      <trkpt lat="43.30316" lon="-0.43326">
        <ele>156.832153</ele>
        <time>2013-08-14T10:16:16Z</time>
      </trkpt>
      <trkpt lat="43.3027" lon="-0.43232">
        <ele>157.312866</ele>
        <time>2013-08-14T10:16:30Z</time>
      </trkpt>
      <trkpt lat="43.3024" lon="-0.43093">
        <ele>157.312866</ele>
        <time>2013-08-14T10:16:48Z</time>
      </trkpt>
      <trkpt lat="43.30215" lon="-0.42981">
        <ele>157.312866</ele>
        <time>2013-08-14T10:17:02Z</time>
      </trkpt>
      <trkpt lat="43.30183" lon="-0.42893">
        <ele>157.793579</ele>
        <time>2013-08-14T10:17:15Z</time>
      </trkpt>
      <trkpt lat="43.30177" lon="-0.42873">
        <ele>158.27417</ele>
        <time>2013-08-14T10:17:18Z</time>
      </trkpt>
      <trkpt lat="43.30173" lon="-0.4284">
        <ele>158.754761</ele>
        <time>2013-08-14T10:17:22Z</time>
      </trkpt>
      <trkpt lat="43.30159" lon="-0.42793">
        <ele>158.27417</ele>
        <time>2013-08-14T10:17:28Z</time>
      </trkpt>
      <trkpt lat="43.30131" lon="-0.42678">
        <ele>159.235474</ele>
        <time>2013-08-14T10:17:44Z</time>
      </trkpt>
      <trkpt lat="43.30117" lon="-0.4263">
        <ele>159.235474</ele>
        <time>2013-08-14T10:17:51Z</time>
      </trkpt>
      <trkpt lat="43.3008" lon="-0.42532">
        <ele>159.716187</ele>
        <time>2013-08-14T10:18:05Z</time>
      </trkpt>
      <trkpt lat="43.30038" lon="-0.4242">
        <ele>160.67749</ele>
        <time>2013-08-14T10:18:21Z</time>
      </trkpt>
      <trkpt lat="43.30019" lon="-0.4237">
        <ele>160.196899</ele>
        <time>2013-08-14T10:18:28Z</time>
      </trkpt>
      <trkpt lat="43.30011" lon="-0.4233">
        <ele>160.196899</ele>
        <time>2013-08-14T10:18:33Z</time>
      </trkpt>
      <trkpt lat="43.29994" lon="-0.42266">
        <ele>159.716187</ele>
        <time>2013-08-14T10:18:41Z</time>
      </trkpt>
      <trkpt lat="43.29992" lon="-0.42183">
        <ele>159.235474</ele>
        <time>2013-08-14T10:18:51Z</time>
      </trkpt>
      <trkpt lat="43.29962" lon="-0.42104">
        <ele>160.196899</ele>
        <time>2013-08-14T10:19:03Z</time>
      </trkpt>
      <trkpt lat="43.2996" lon="-0.42097">
        <ele>159.716187</ele>
        <time>2013-08-14T10:19:04Z</time>
      </trkpt>
      <trkpt lat="43.29955" lon="-0.42069">
        <ele>160.196899</ele>
        <time>2013-08-14T10:19:08Z</time>
      </trkpt>
      <trkpt lat="43.29922" lon="-0.41999">
        <ele>161.158203</ele>
        <time>2013-08-14T10:19:20Z</time>
      </trkpt>
      <trkpt lat="43.29914" lon="-0.41982">
        <ele>160.67749</ele>
        <time>2013-08-14T10:19:23Z</time>
      </trkpt>
      <trkpt lat="43.29894" lon="-0.41957">
        <ele>160.67749</ele>
        <time>2013-08-14T10:19:28Z</time>
      </trkpt>
      <trkpt lat="43.29875" lon="-0.41932">
        <ele>162.119507</ele>
        <time>2013-08-14T10:19:33Z</time>
      </trkpt>
      <trkpt lat="43.29869" lon="-0.41922">
        <ele>162.600098</ele>
        <time>2013-08-14T10:19:35Z</time>
      </trkpt>
      <trkpt lat="43.29863" lon="-0.41912">
        <ele>161.158203</ele>
        <time>2013-08-14T10:19:37Z</time>
      </trkpt>
      <trkpt lat="43.29853" lon="-0.41868">
        <ele>163.080811</ele>
        <time>2013-08-14T10:19:44Z</time>
      </trkpt>
      <trkpt lat="43.29843" lon="-0.41838">
        <ele>162.600098</ele>
        <time>2013-08-14T10:19:49Z</time>
      </trkpt>
      <trkpt lat="43.29829" lon="-0.41816">
        <ele>163.080811</ele>
        <time>2013-08-14T10:19:53Z</time>
      </trkpt>
      <trkpt lat="43.29813" lon="-0.41781">
        <ele>163.080811</ele>
        <time>2013-08-14T10:19:59Z</time>
      </trkpt>
      <trkpt lat="43.29813" lon="-0.41759">
        <ele>163.561523</ele>
        <time>2013-08-14T10:20:02Z</time>
      </trkpt>
      <trkpt lat="43.29799" lon="-0.41708">
        <ele>164.522705</ele>
        <time>2013-08-14T10:20:09Z</time>
      </trkpt>
      <trkpt lat="43.29794" lon="-0.4165">
        <ele>164.042114</ele>
        <time>2013-08-14T10:20:17Z</time>
      </trkpt>
      <trkpt lat="43.29788" lon="-0.41622">
        <ele>165.003418</ele>
        <time>2013-08-14T10:20:21Z</time>
      </trkpt>
      <trkpt lat="43.29775" lon="-0.41587">
        <ele>164.522705</ele>
        <time>2013-08-14T10:20:26Z</time>
      </trkpt>
      <trkpt lat="43.29767" lon="-0.41554">
        <ele>164.042114</ele>
        <time>2013-08-14T10:20:30Z</time>
      </trkpt>
      <trkpt lat="43.2975" lon="-0.41512">
        <ele>163.561523</ele>
        <time>2013-08-14T10:20:36Z</time>
      </trkpt>
      <trkpt lat="43.29721" lon="-0.41475">
        <ele>163.080811</ele>
        <time>2013-08-14T10:20:43Z</time>
      </trkpt>
      <trkpt lat="43.29705" lon="-0.41448">
        <ele>163.080811</ele>
        <time>2013-08-14T10:20:48Z</time>
      </trkpt>
      <trkpt lat="43.29701" lon="-0.41423">
        <ele>162.600098</ele>
        <time>2013-08-14T10:20:52Z</time>
      </trkpt>
      <trkpt lat="43.29695" lon="-0.41398">
        <ele>163.080811</ele>
        <time>2013-08-14T10:20:56Z</time>
      </trkpt>
      <trkpt lat="43.29661" lon="-0.41372">
        <ele>163.561523</ele>
        <time>2013-08-14T10:21:06Z</time>
      </trkpt>
      <trkpt lat="43.29651" lon="-0.41381">
        <ele>164.042114</ele>
        <time>2013-08-14T10:21:14Z</time>
      </trkpt>
      <trkpt lat="43.29651" lon="-0.41379">
        <ele>163.561523</ele>
        <time>2013-08-14T10:21:19Z</time>
      </trkpt>
      <trkpt lat="43.29665" lon="-0.41372">
        <ele>163.080811</ele>
        <time>2013-08-14T10:21:26Z</time>
      </trkpt>
      <trkpt lat="43.29681" lon="-0.41377">
        <ele>163.080811</ele>
        <time>2013-08-14T10:21:32Z</time>
      </trkpt>
      <trkpt lat="43.29699" lon="-0.41422">
        <ele>163.561523</ele>
        <time>2013-08-14T10:21:40Z</time>
      </trkpt>
      <trkpt lat="43.29702" lon="-0.41441">
        <ele>163.080811</ele>
        <time>2013-08-14T10:21:43Z</time>
      </trkpt>
      <trkpt lat="43.29709" lon="-0.41459">
        <ele>163.561523</ele>
        <time>2013-08-14T10:21:46Z</time>
      </trkpt>
      <trkpt lat="43.29718" lon="-0.41474">
        <ele>164.042114</ele>
        <time>2013-08-14T10:21:49Z</time>
      </trkpt>
      <trkpt lat="43.29763" lon="-0.41541">
        <ele>163.080811</ele>
        <time>2013-08-14T10:22:02Z</time>
      </trkpt>
      <trkpt lat="43.29769" lon="-0.41568">
        <ele>163.080811</ele>
        <time>2013-08-14T10:22:06Z</time>
      </trkpt>
      <trkpt lat="43.2978" lon="-0.41604">
        <ele>164.042114</ele>
        <time>2013-08-14T10:22:12Z</time>
      </trkpt>
      <trkpt lat="43.29788" lon="-0.41621">
        <ele>164.522705</ele>
        <time>2013-08-14T10:22:15Z</time>
      </trkpt>
      <trkpt lat="43.29795" lon="-0.41666">
        <ele>163.561523</ele>
        <time>2013-08-14T10:22:21Z</time>
      </trkpt>
      <trkpt lat="43.298" lon="-0.41714">
        <ele>164.042114</ele>
        <time>2013-08-14T10:22:27Z</time>
      </trkpt>
      <trkpt lat="43.29812" lon="-0.41756">
        <ele>164.522705</ele>
        <time>2013-08-14T10:22:33Z</time>
      </trkpt>
      <trkpt lat="43.29815" lon="-0.41793">
        <ele>164.042114</ele>
        <time>2013-08-14T10:22:38Z</time>
      </trkpt>
      <trkpt lat="43.29826" lon="-0.41817">
        <ele>164.042114</ele>
        <time>2013-08-14T10:22:42Z</time>
      </trkpt>
      <trkpt lat="43.29847" lon="-0.41851">
        <ele>163.080811</ele>
        <time>2013-08-14T10:22:48Z</time>
      </trkpt>
      <trkpt lat="43.29861" lon="-0.41905">
        <ele>163.561523</ele>
        <time>2013-08-14T10:22:55Z</time>
      </trkpt>
      <trkpt lat="43.2987" lon="-0.41926">
        <ele>162.600098</ele>
        <time>2013-08-14T10:22:58Z</time>
      </trkpt>
      <trkpt lat="43.29887" lon="-0.41951">
        <ele>161.638916</ele>
        <time>2013-08-14T10:23:02Z</time>
      </trkpt>
      <trkpt lat="43.29906" lon="-0.41973">
        <ele>161.158203</ele>
        <time>2013-08-14T10:23:06Z</time>
      </trkpt>
      <trkpt lat="43.29918" lon="-0.4199">
        <ele>161.158203</ele>
        <time>2013-08-14T10:23:09Z</time>
      </trkpt>
      <trkpt lat="43.29952" lon="-0.42061">
        <ele>160.67749</ele>
        <time>2013-08-14T10:23:19Z</time>
      </trkpt>
      <trkpt lat="43.29958" lon="-0.42083">
        <ele>160.196899</ele>
        <time>2013-08-14T10:23:22Z</time>
      </trkpt>
      <trkpt lat="43.2999" lon="-0.42166">
        <ele>159.716187</ele>
        <time>2013-08-14T10:23:34Z</time>
      </trkpt>
      <trkpt lat="43.29995" lon="-0.42203">
        <ele>159.716187</ele>
        <time>2013-08-14T10:23:39Z</time>
      </trkpt>
      <trkpt lat="43.29994" lon="-0.42241">
        <ele>159.716187</ele>
        <time>2013-08-14T10:23:44Z</time>
      </trkpt>
      <trkpt lat="43.29996" lon="-0.42272">
        <ele>159.235474</ele>
        <time>2013-08-14T10:23:48Z</time>
      </trkpt>
      <trkpt lat="43.30009" lon="-0.42312">
        <ele>159.716187</ele>
        <time>2013-08-14T10:23:54Z</time>
      </trkpt>
      <trkpt lat="43.30014" lon="-0.42333">
        <ele>159.716187</ele>
        <time>2013-08-14T10:23:57Z</time>
      </trkpt>
      <trkpt lat="43.30018" lon="-0.42361">
        <ele>159.716187</ele>
        <time>2013-08-14T10:24:01Z</time>
      </trkpt>
      <trkpt lat="43.30034" lon="-0.42404">
        <ele>159.716187</ele>
        <time>2013-08-14T10:24:08Z</time>
      </trkpt>
      <trkpt lat="43.30064" lon="-0.42492">
        <ele>159.716187</ele>
        <time>2013-08-14T10:24:21Z</time>
      </trkpt>
      <trkpt lat="43.30104" lon="-0.42588">
        <ele>159.235474</ele>
        <time>2013-08-14T10:24:35Z</time>
      </trkpt>
      <trkpt lat="43.30137" lon="-0.42695">
        <ele>158.27417</ele>
        <time>2013-08-14T10:24:50Z</time>
      </trkpt>
      <trkpt lat="43.3016" lon="-0.42791">
        <ele>157.793579</ele>
        <time>2013-08-14T10:25:03Z</time>
      </trkpt>
      <trkpt lat="43.30183" lon="-0.42889">
        <ele>157.793579</ele>
        <time>2013-08-14T10:25:16Z</time>
      </trkpt>
      <trkpt lat="43.30217" lon="-0.42986">
        <ele>157.312866</ele>
        <time>2013-08-14T10:25:30Z</time>
      </trkpt>
      <trkpt lat="43.30238" lon="-0.43087">
        <ele>156.832153</ele>
        <time>2013-08-14T10:25:43Z</time>
      </trkpt>
      <trkpt lat="43.30255" lon="-0.43151">
        <ele>157.312866</ele>
        <time>2013-08-14T10:25:52Z</time>
      </trkpt>
      <trkpt lat="43.30263" lon="-0.4319">
        <ele>157.312866</ele>
        <time>2013-08-14T10:25:57Z</time>
      </trkpt>
      <trkpt lat="43.30271" lon="-0.4323">
        <ele>157.312866</ele>
        <time>2013-08-14T10:26:02Z</time>
      </trkpt>
      <trkpt lat="43.30321" lon="-0.43335">
        <ele>156.832153</ele>
        <time>2013-08-14T10:26:17Z</time>
      </trkpt>
      <trkpt lat="43.30346" lon="-0.43387">
        <ele>156.351563</ele>
        <time>2013-08-14T10:26:25Z</time>
      </trkpt>
      <trkpt lat="43.30376" lon="-0.43456">
        <ele>156.351563</ele>
        <time>2013-08-14T10:26:35Z</time>
      </trkpt>
      <trkpt lat="43.30371" lon="-0.43507">
        <ele>155.390259</ele>
        <time>2013-08-14T10:26:42Z</time>
      </trkpt>
      <trkpt lat="43.30371" lon="-0.4354">
        <ele>156.832153</ele>
        <time>2013-08-14T10:26:47Z</time>
      </trkpt>
      <trkpt lat="43.30394" lon="-0.43582">
        <ele>157.312866</ele>
        <time>2013-08-14T10:26:57Z</time>
      </trkpt>
      <trkpt lat="43.3042" lon="-0.43636">
        <ele>157.312866</ele>
        <time>2013-08-14T10:27:07Z</time>
      </trkpt>
      <trkpt lat="43.30456" lon="-0.43735">
        <ele>156.832153</ele>
        <time>2013-08-14T10:27:22Z</time>
      </trkpt>
      <trkpt lat="43.3047" lon="-0.43758">
        <ele>156.832153</ele>
        <time>2013-08-14T10:27:26Z</time>
      </trkpt>
      <trkpt lat="43.30482" lon="-0.43793">
        <ele>156.832153</ele>
        <time>2013-08-14T10:27:31Z</time>
      </trkpt>
      <trkpt lat="43.30491" lon="-0.43839">
        <ele>156.351563</ele>
        <time>2013-08-14T10:27:37Z</time>
      </trkpt>
      <trkpt lat="43.3055" lon="-0.43943">
        <ele>154.909546</ele>
        <time>2013-08-14T10:27:54Z</time>
      </trkpt>
      <trkpt lat="43.30607" lon="-0.44039">
        <ele>153.948364</ele>
        <time>2013-08-14T10:28:09Z</time>
      </trkpt>
      <trkpt lat="43.30618" lon="-0.44057">
        <ele>153.948364</ele>
        <time>2013-08-14T10:28:12Z</time>
      </trkpt>
      <trkpt lat="43.30659" lon="-0.44122">
        <ele>153.467651</ele>
        <time>2013-08-14T10:28:23Z</time>
      </trkpt>
      <trkpt lat="43.30681" lon="-0.44159">
        <ele>153.948364</ele>
        <time>2013-08-14T10:28:29Z</time>
      </trkpt>
      <trkpt lat="43.30694" lon="-0.44182">
        <ele>153.948364</ele>
        <time>2013-08-14T10:28:33Z</time>
      </trkpt>
      <trkpt lat="43.30739" lon="-0.44292">
        <ele>152.986938</ele>
        <time>2013-08-14T10:28:51Z</time>
      </trkpt>
      <trkpt lat="43.30743" lon="-0.44305">
        <ele>152.986938</ele>
        <time>2013-08-14T10:28:53Z</time>
      </trkpt>
      <trkpt lat="43.30758" lon="-0.44356">
        <ele>152.506348</ele>
        <time>2013-08-14T10:29:01Z</time>
      </trkpt>
      <trkpt lat="43.30763" lon="-0.44384">
        <ele>152.986938</ele>
        <time>2013-08-14T10:29:05Z</time>
      </trkpt>
      <trkpt lat="43.30773" lon="-0.44448">
        <ele>152.506348</ele>
        <time>2013-08-14T10:29:14Z</time>
      </trkpt>
      <trkpt lat="43.30796" lon="-0.44546">
        <ele>152.506348</ele>
        <time>2013-08-14T10:29:27Z</time>
      </trkpt>
      <trkpt lat="43.30816" lon="-0.44585">
        <ele>152.506348</ele>
        <time>2013-08-14T10:29:33Z</time>
      </trkpt>
      <trkpt lat="43.30827" lon="-0.4462">
        <ele>153.948364</ele>
        <time>2013-08-14T10:29:39Z</time>
      </trkpt>
      <trkpt lat="43.30833" lon="-0.44634">
        <ele>154.428955</ele>
        <time>2013-08-14T10:29:42Z</time>
      </trkpt>
      <trkpt lat="43.30848" lon="-0.4465">
        <ele>153.467651</ele>
        <time>2013-08-14T10:29:46Z</time>
      </trkpt>
      <trkpt lat="43.30868" lon="-0.44674">
        <ele>152.986938</ele>
        <time>2013-08-14T10:29:50Z</time>
      </trkpt>
      <trkpt lat="43.30881" lon="-0.44702">
        <ele>152.506348</ele>
        <time>2013-08-14T10:29:54Z</time>
      </trkpt>
      <trkpt lat="43.309" lon="-0.44731">
        <ele>152.506348</ele>
        <time>2013-08-14T10:29:59Z</time>
      </trkpt>
      <trkpt lat="43.30933" lon="-0.44756">
        <ele>152.025757</ele>
        <time>2013-08-14T10:30:06Z</time>
      </trkpt>
      <trkpt lat="43.30954" lon="-0.44781">
        <ele>152.025757</ele>
        <time>2013-08-14T10:30:11Z</time>
      </trkpt>
      <trkpt lat="43.31014" lon="-0.4487">
        <ele>152.506348</ele>
        <time>2013-08-14T10:30:27Z</time>
      </trkpt>
      <trkpt lat="43.31078" lon="-0.44917">
        <ele>152.025757</ele>
        <time>2013-08-14T10:30:40Z</time>
      </trkpt>
      <trkpt lat="43.31156" lon="-0.44978">
        <ele>152.025757</ele>
        <time>2013-08-14T10:30:57Z</time>
      </trkpt>
      <trkpt lat="43.31238" lon="-0.45045">
        <ele>152.025757</ele>
        <time>2013-08-14T10:31:15Z</time>
      </trkpt>
      <trkpt lat="43.31279" lon="-0.45066">
        <ele>151.544922</ele>
        <time>2013-08-14T10:31:23Z</time>
      </trkpt>
      <trkpt lat="43.31375" lon="-0.4512">
        <ele>151.544922</ele>
        <time>2013-08-14T10:31:42Z</time>
      </trkpt>
      <trkpt lat="43.31427" lon="-0.45132">
        <ele>151.544922</ele>
        <time>2013-08-14T10:31:51Z</time>
      </trkpt>
      <trkpt lat="43.31475" lon="-0.4516">
        <ele>152.506348</ele>
        <time>2013-08-14T10:32:02Z</time>
      </trkpt>
      <trkpt lat="43.31495" lon="-0.45162">
        <ele>152.506348</ele>
        <time>2013-08-14T10:32:06Z</time>
      </trkpt>
      <trkpt lat="43.31542" lon="-0.45182">
        <ele>152.025757</ele>
        <time>2013-08-14T10:32:15Z</time>
      </trkpt>
      <trkpt lat="43.31572" lon="-0.45195">
        <ele>151.544922</ele>
        <time>2013-08-14T10:32:21Z</time>
      </trkpt>
      <trkpt lat="43.31659" lon="-0.45181">
        <ele>152.025757</ele>
        <time>2013-08-14T10:32:36Z</time>
      </trkpt>
      <trkpt lat="43.31745" lon="-0.45199">
        <ele>152.025757</ele>
        <time>2013-08-14T10:32:51Z</time>
      </trkpt>
      <trkpt lat="43.31787" lon="-0.45219">
        <ele>151.544922</ele>
        <time>2013-08-14T10:32:59Z</time>
      </trkpt>
      <trkpt lat="43.31807" lon="-0.4526">
        <ele>151.544922</ele>
        <time>2013-08-14T10:33:06Z</time>
      </trkpt>
      <trkpt lat="43.31812" lon="-0.45296">
        <ele>151.064209</ele>
        <time>2013-08-14T10:33:11Z</time>
      </trkpt>
      <trkpt lat="43.31841" lon="-0.45337">
        <ele>150.103027</ele>
        <time>2013-08-14T10:33:18Z</time>
      </trkpt>
      <trkpt lat="43.31851" lon="-0.45341">
        <ele>150.583618</ele>
        <time>2013-08-14T10:33:20Z</time>
      </trkpt>
      <trkpt lat="43.31867" lon="-0.45355">
        <ele>150.103027</ele>
        <time>2013-08-14T10:33:24Z</time>
      </trkpt>
      <trkpt lat="43.31897" lon="-0.45402">
        <ele>151.064209</ele>
        <time>2013-08-14T10:33:33Z</time>
      </trkpt>
      <trkpt lat="43.31967" lon="-0.45458">
        <ele>151.064209</ele>
        <time>2013-08-14T10:33:48Z</time>
      </trkpt>
      <trkpt lat="43.32058" lon="-0.45508">
        <ele>151.064209</ele>
        <time>2013-08-14T10:34:06Z</time>
      </trkpt>
      <trkpt lat="43.32124" lon="-0.4554">
        <ele>151.064209</ele>
        <time>2013-08-14T10:34:19Z</time>
      </trkpt>
      <trkpt lat="43.32229" lon="-0.456">
        <ele>151.544922</ele>
        <time>2013-08-14T10:34:39Z</time>
      </trkpt>
      <trkpt lat="43.32312" lon="-0.45664">
        <ele>151.064209</ele>
        <time>2013-08-14T10:34:56Z</time>
      </trkpt>
      <trkpt lat="43.32409" lon="-0.45726">
        <ele>150.103027</ele>
        <time>2013-08-14T10:35:14Z</time>
      </trkpt>
      <trkpt lat="43.3243" lon="-0.45738">
        <ele>149.141602</ele>
        <time>2013-08-14T10:35:18Z</time>
      </trkpt>
      <trkpt lat="43.32496" lon="-0.45815">
        <ele>149.622314</ele>
        <time>2013-08-14T10:35:33Z</time>
      </trkpt>
      <trkpt lat="43.32587" lon="-0.45911">
        <ele>149.141602</ele>
        <time>2013-08-14T10:35:53Z</time>
      </trkpt>
      <trkpt lat="43.32667" lon="-0.45988">
        <ele>149.141602</ele>
        <time>2013-08-14T10:36:10Z</time>
      </trkpt>
      <trkpt lat="43.32739" lon="-0.46091">
        <ele>147.218994</ele>
        <time>2013-08-14T10:36:27Z</time>
      </trkpt>
      <trkpt lat="43.32791" lon="-0.46189">
        <ele>147.218994</ele>
        <time>2013-08-14T10:36:43Z</time>
      </trkpt>
      <trkpt lat="43.32851" lon="-0.46266">
        <ele>147.699707</ele>
        <time>2013-08-14T10:36:58Z</time>
      </trkpt>
      <trkpt lat="43.32929" lon="-0.46369">
        <ele>147.699707</ele>
        <time>2013-08-14T10:37:18Z</time>
      </trkpt>
      <trkpt lat="43.32987" lon="-0.46425">
        <ele>147.218994</ele>
        <time>2013-08-14T10:37:30Z</time>
      </trkpt>
      <trkpt lat="43.33008" lon="-0.46438">
        <ele>146.738403</ele>
        <time>2013-08-14T10:37:34Z</time>
      </trkpt>
      <trkpt lat="43.33072" lon="-0.4649">
        <ele>146.257813</ele>
        <time>2013-08-14T10:37:47Z</time>
      </trkpt>
      <trkpt lat="43.33089" lon="-0.4652">
        <ele>146.257813</ele>
        <time>2013-08-14T10:37:52Z</time>
      </trkpt>
      <trkpt lat="43.33102" lon="-0.46546">
        <ele>144.335205</ele>
        <time>2013-08-14T10:37:56Z</time>
      </trkpt>
      <trkpt lat="43.33109" lon="-0.46557">
        <ele>144.335205</ele>
        <time>2013-08-14T10:37:58Z</time>
      </trkpt>
      <trkpt lat="43.33115" lon="-0.46575">
        <ele>144.335205</ele>
        <time>2013-08-14T10:38:01Z</time>
      </trkpt>
      <trkpt lat="43.33115" lon="-0.46604">
        <ele>146.257813</ele>
        <time>2013-08-14T10:38:06Z</time>
      </trkpt>
      <trkpt lat="43.33103" lon="-0.46624">
        <ele>145.296387</ele>
        <time>2013-08-14T10:38:10Z</time>
      </trkpt>
      <trkpt lat="43.33086" lon="-0.46637">
        <ele>145.7771</ele>
        <time>2013-08-14T10:38:14Z</time>
      </trkpt>
      <trkpt lat="43.3307" lon="-0.46665">
        <ele>144.815796</ele>
        <time>2013-08-14T10:38:19Z</time>
      </trkpt>
      <trkpt lat="43.3306" lon="-0.46692">
        <ele>144.815796</ele>
        <time>2013-08-14T10:38:23Z</time>
      </trkpt>
      <trkpt lat="43.3304" lon="-0.46718">
        <ele>144.815796</ele>
        <time>2013-08-14T10:38:28Z</time>
      </trkpt>
      <trkpt lat="43.32975" lon="-0.46782">
        <ele>145.7771</ele>
        <time>2013-08-14T10:38:44Z</time>
      </trkpt>
      <trkpt lat="43.32968" lon="-0.46792">
        <ele>145.296387</ele>
        <time>2013-08-14T10:38:46Z</time>
      </trkpt>
      <trkpt lat="43.32901" lon="-0.46865">
        <ele>145.7771</ele>
        <time>2013-08-14T10:39:03Z</time>
      </trkpt>
      <trkpt lat="43.32888" lon="-0.46877">
        <ele>146.257813</ele>
        <time>2013-08-14T10:39:06Z</time>
      </trkpt>
      <trkpt lat="43.32843" lon="-0.46955">
        <ele>146.257813</ele>
        <time>2013-08-14T10:39:20Z</time>
      </trkpt>
      <trkpt lat="43.32812" lon="-0.47047">
        <ele>145.296387</ele>
        <time>2013-08-14T10:39:34Z</time>
      </trkpt>
      <trkpt lat="43.32809" lon="-0.47083">
        <ele>145.7771</ele>
        <time>2013-08-14T10:39:39Z</time>
      </trkpt>
      <trkpt lat="43.32814" lon="-0.47199">
        <ele>144.335205</ele>
        <time>2013-08-14T10:39:54Z</time>
      </trkpt>
      <trkpt lat="43.32822" lon="-0.47315">
        <ele>143.373657</ele>
        <time>2013-08-14T10:40:09Z</time>
      </trkpt>
      <trkpt lat="43.32846" lon="-0.47453">
        <ele>141.931763</ele>
        <time>2013-08-14T10:40:28Z</time>
      </trkpt>
      <trkpt lat="43.32856" lon="-0.47477">
        <ele>143.373657</ele>
        <time>2013-08-14T10:40:32Z</time>
      </trkpt>
      <trkpt lat="43.32865" lon="-0.47493">
        <ele>142.893066</ele>
        <time>2013-08-14T10:40:35Z</time>
      </trkpt>
      <trkpt lat="43.32854" lon="-0.47525">
        <ele>143.85437</ele>
        <time>2013-08-14T10:40:42Z</time>
      </trkpt>
      <trkpt lat="43.32849" lon="-0.47528">
        <ele>143.85437</ele>
        <time>2013-08-14T10:40:43Z</time>
      </trkpt>
      <trkpt lat="43.32832" lon="-0.47565">
        <ele>142.412476</ele>
        <time>2013-08-14T10:40:50Z</time>
      </trkpt>
      <trkpt lat="43.32869" lon="-0.47664">
        <ele>142.412476</ele>
        <time>2013-08-14T10:41:06Z</time>
      </trkpt>
      <trkpt lat="43.3288" lon="-0.47696">
        <ele>142.412476</ele>
        <time>2013-08-14T10:41:11Z</time>
      </trkpt>
      <trkpt lat="43.32919" lon="-0.47784">
        <ele>142.893066</ele>
        <time>2013-08-14T10:41:26Z</time>
      </trkpt>
      <trkpt lat="43.32924" lon="-0.47796">
        <ele>142.893066</ele>
        <time>2013-08-14T10:41:28Z</time>
      </trkpt>
      <trkpt lat="43.32955" lon="-0.47883">
        <ele>142.893066</ele>
        <time>2013-08-14T10:41:42Z</time>
      </trkpt>
      <trkpt lat="43.32988" lon="-0.4795">
        <ele>142.412476</ele>
        <time>2013-08-14T10:41:53Z</time>
      </trkpt>
      <trkpt lat="43.33028" lon="-0.48068">
        <ele>142.412476</ele>
        <time>2013-08-14T10:42:10Z</time>
      </trkpt>
      <trkpt lat="43.33037" lon="-0.48086">
        <ele>141.45105</ele>
        <time>2013-08-14T10:42:13Z</time>
      </trkpt>
      <trkpt lat="43.33059" lon="-0.48181">
        <ele>141.931763</ele>
        <time>2013-08-14T10:42:27Z</time>
      </trkpt>
      <trkpt lat="43.33052" lon="-0.4824">
        <ele>142.412476</ele>
        <time>2013-08-14T10:42:35Z</time>
      </trkpt>
      <trkpt lat="43.33051" lon="-0.48258">
        <ele>141.45105</ele>
        <time>2013-08-14T10:42:38Z</time>
      </trkpt>
      <trkpt lat="43.33054" lon="-0.48279">
        <ele>141.931763</ele>
        <time>2013-08-14T10:42:42Z</time>
      </trkpt>
      <trkpt lat="43.33092" lon="-0.48356">
        <ele>141.45105</ele>
        <time>2013-08-14T10:42:56Z</time>
      </trkpt>
      <trkpt lat="43.3312" lon="-0.48414">
        <ele>141.45105</ele>
        <time>2013-08-14T10:43:06Z</time>
      </trkpt>
      <trkpt lat="43.33134" lon="-0.48422">
        <ele>140.970459</ele>
        <time>2013-08-14T10:43:09Z</time>
      </trkpt>
      <trkpt lat="43.33165" lon="-0.48432">
        <ele>140.970459</ele>
        <time>2013-08-14T10:43:15Z</time>
      </trkpt>
      <trkpt lat="43.33185" lon="-0.48448">
        <ele>140.489868</ele>
        <time>2013-08-14T10:43:19Z</time>
      </trkpt>
      <trkpt lat="43.33197" lon="-0.48492">
        <ele>139.528442</ele>
        <time>2013-08-14T10:43:25Z</time>
      </trkpt>
      <trkpt lat="43.33195" lon="-0.48526">
        <ele>140.009155</ele>
        <time>2013-08-14T10:43:30Z</time>
      </trkpt>
      <trkpt lat="43.33189" lon="-0.48558">
        <ele>140.489868</ele>
        <time>2013-08-14T10:43:35Z</time>
      </trkpt>
      <trkpt lat="43.33202" lon="-0.48616">
        <ele>139.528442</ele>
        <time>2013-08-14T10:43:43Z</time>
      </trkpt>
      <trkpt lat="43.33255" lon="-0.48695">
        <ele>140.009155</ele>
        <time>2013-08-14T10:43:57Z</time>
      </trkpt>
      <trkpt lat="43.33289" lon="-0.48734">
        <ele>139.528442</ele>
        <time>2013-08-14T10:44:05Z</time>
      </trkpt>
      <trkpt lat="43.33299" lon="-0.48751">
        <ele>139.528442</ele>
        <time>2013-08-14T10:44:08Z</time>
      </trkpt>
      <trkpt lat="43.33308" lon="-0.48778">
        <ele>139.047852</ele>
        <time>2013-08-14T10:44:12Z</time>
      </trkpt>
      <trkpt lat="43.3332" lon="-0.488">
        <ele>139.528442</ele>
        <time>2013-08-14T10:44:16Z</time>
      </trkpt>
      <trkpt lat="43.33359" lon="-0.48846">
        <ele>139.047852</ele>
        <time>2013-08-14T10:44:26Z</time>
      </trkpt>
      <trkpt lat="43.33388" lon="-0.48848">
        <ele>140.009155</ele>
        <time>2013-08-14T10:44:32Z</time>
      </trkpt>
      <trkpt lat="43.33434" lon="-0.48817">
        <ele>139.047852</ele>
        <time>2013-08-14T10:44:41Z</time>
      </trkpt>
      <trkpt lat="43.33455" lon="-0.48833">
        <ele>139.047852</ele>
        <time>2013-08-14T10:44:46Z</time>
      </trkpt>
      <trkpt lat="43.33491" lon="-0.48962">
        <ele>138.567261</ele>
        <time>2013-08-14T10:45:04Z</time>
      </trkpt>
      <trkpt lat="43.33523" lon="-0.49052">
        <ele>139.047852</ele>
        <time>2013-08-14T10:45:17Z</time>
      </trkpt>
      <trkpt lat="43.33588" lon="-0.49158">
        <ele>137.125244</ele>
        <time>2013-08-14T10:45:35Z</time>
      </trkpt>
      <trkpt lat="43.33617" lon="-0.49193">
        <ele>137.605835</ele>
        <time>2013-08-14T10:45:42Z</time>
      </trkpt>
      <trkpt lat="43.33626" lon="-0.49233">
        <ele>137.125244</ele>
        <time>2013-08-14T10:45:48Z</time>
      </trkpt>
      <trkpt lat="43.33627" lon="-0.49249">
        <ele>136.16394</ele>
        <time>2013-08-14T10:45:50Z</time>
      </trkpt>
      <trkpt lat="43.3363" lon="-0.49263">
        <ele>136.644653</ele>
        <time>2013-08-14T10:45:52Z</time>
      </trkpt>
      <trkpt lat="43.33651" lon="-0.49287">
        <ele>136.644653</ele>
        <time>2013-08-14T10:45:57Z</time>
      </trkpt>
      <trkpt lat="43.33672" lon="-0.49296">
        <ele>137.125244</ele>
        <time>2013-08-14T10:46:01Z</time>
      </trkpt>
      <trkpt lat="43.33705" lon="-0.49349">
        <ele>136.644653</ele>
        <time>2013-08-14T10:46:11Z</time>
      </trkpt>
      <trkpt lat="43.33727" lon="-0.49434">
        <ele>136.644653</ele>
        <time>2013-08-14T10:46:23Z</time>
      </trkpt>
      <trkpt lat="43.33754" lon="-0.4946">
        <ele>136.16394</ele>
        <time>2013-08-14T10:46:29Z</time>
      </trkpt>
      <trkpt lat="43.33777" lon="-0.49475">
        <ele>135.683105</ele>
        <time>2013-08-14T10:46:34Z</time>
      </trkpt>
      <trkpt lat="43.33818" lon="-0.49564">
        <ele>135.683105</ele>
        <time>2013-08-14T10:46:48Z</time>
      </trkpt>
      <trkpt lat="43.33826" lon="-0.4959">
        <ele>135.202515</ele>
        <time>2013-08-14T10:46:52Z</time>
      </trkpt>
      <trkpt lat="43.3384" lon="-0.49678">
        <ele>135.683105</ele>
        <time>2013-08-14T10:47:05Z</time>
      </trkpt>
      <trkpt lat="43.33867" lon="-0.49757">
        <ele>135.202515</ele>
        <time>2013-08-14T10:47:17Z</time>
      </trkpt>
      <trkpt lat="43.3387" lon="-0.49763">
        <ele>135.202515</ele>
        <time>2013-08-14T10:47:18Z</time>
      </trkpt>
      <trkpt lat="43.33874" lon="-0.49774">
        <ele>135.683105</ele>
        <time>2013-08-14T10:47:20Z</time>
      </trkpt>
      <trkpt lat="43.33869" lon="-0.49806">
        <ele>136.16394</ele>
        <time>2013-08-14T10:47:27Z</time>
      </trkpt>
      <trkpt lat="43.33872" lon="-0.49811">
        <ele>135.202515</ele>
        <time>2013-08-14T10:47:28Z</time>
      </trkpt>
      <trkpt lat="43.33883" lon="-0.49827">
        <ele>135.202515</ele>
        <time>2013-08-14T10:47:31Z</time>
      </trkpt>
      <trkpt lat="43.33893" lon="-0.49854">
        <ele>134.721924</ele>
        <time>2013-08-14T10:47:35Z</time>
      </trkpt>
      <trkpt lat="43.33902" lon="-0.49878">
        <ele>136.16394</ele>
        <time>2013-08-14T10:47:39Z</time>
      </trkpt>
      <trkpt lat="43.33916" lon="-0.49895">
        <ele>136.16394</ele>
        <time>2013-08-14T10:47:43Z</time>
      </trkpt>
      <trkpt lat="43.33924" lon="-0.49902">
        <ele>136.16394</ele>
        <time>2013-08-14T10:47:45Z</time>
      </trkpt>
      <trkpt lat="43.33962" lon="-0.49969">
        <ele>134.241211</ele>
        <time>2013-08-14T10:47:56Z</time>
      </trkpt>
      <trkpt lat="43.33985" lon="-0.50073">
        <ele>133.279907</ele>
        <time>2013-08-14T10:48:11Z</time>
      </trkpt>
      <trkpt lat="43.34005" lon="-0.50126">
        <ele>132.799316</ele>
        <time>2013-08-14T10:48:19Z</time>
      </trkpt>
      <trkpt lat="43.34062" lon="-0.50195">
        <ele>133.279907</ele>
        <time>2013-08-14T10:48:33Z</time>
      </trkpt>
      <trkpt lat="43.34106" lon="-0.50251">
        <ele>134.721924</ele>
        <time>2013-08-14T10:48:47Z</time>
      </trkpt>
      <trkpt lat="43.34159" lon="-0.50315">
        <ele>134.241211</ele>
        <time>2013-08-14T10:49:01Z</time>
      </trkpt>
      <trkpt lat="43.34223" lon="-0.5036">
        <ele>133.760498</ele>
        <time>2013-08-14T10:49:15Z</time>
      </trkpt>
      <trkpt lat="43.34227" lon="-0.50363">
        <ele>134.241211</ele>
        <time>2013-08-14T10:49:16Z</time>
      </trkpt>
      <trkpt lat="43.3429" lon="-0.5042">
        <ele>132.799316</ele>
        <time>2013-08-14T10:49:30Z</time>
      </trkpt>
      <trkpt lat="43.343" lon="-0.50434">
        <ele>133.279907</ele>
        <time>2013-08-14T10:49:33Z</time>
      </trkpt>
      <trkpt lat="43.34319" lon="-0.50455">
        <ele>133.760498</ele>
        <time>2013-08-14T10:49:38Z</time>
      </trkpt>
      <trkpt lat="43.3433" lon="-0.50471">
        <ele>133.760498</ele>
        <time>2013-08-14T10:49:41Z</time>
      </trkpt>
      <trkpt lat="43.34348" lon="-0.50487">
        <ele>133.279907</ele>
        <time>2013-08-14T10:49:45Z</time>
      </trkpt>
      <trkpt lat="43.34384" lon="-0.505">
        <ele>133.760498</ele>
        <time>2013-08-14T10:49:52Z</time>
      </trkpt>
      <trkpt lat="43.34405" lon="-0.50512">
        <ele>132.799316</ele>
        <time>2013-08-14T10:49:56Z</time>
      </trkpt>
      <trkpt lat="43.34423" lon="-0.50532">
        <ele>132.799316</ele>
        <time>2013-08-14T10:50:00Z</time>
      </trkpt>
      <trkpt lat="43.34434" lon="-0.50549">
        <ele>132.799316</ele>
        <time>2013-08-14T10:50:03Z</time>
      </trkpt>
      <trkpt lat="43.34506" lon="-0.50621">
        <ele>133.279907</ele>
        <time>2013-08-14T10:50:19Z</time>
      </trkpt>
      <trkpt lat="43.34562" lon="-0.507">
        <ele>132.318604</ele>
        <time>2013-08-14T10:50:34Z</time>
      </trkpt>
      <trkpt lat="43.34566" lon="-0.50706">
        <ele>130.876709</ele>
        <time>2013-08-14T10:50:35Z</time>
      </trkpt>
      <trkpt lat="43.3459" lon="-0.50734">
        <ele>132.318604</ele>
        <time>2013-08-14T10:50:41Z</time>
      </trkpt>
      <trkpt lat="43.34604" lon="-0.50759">
        <ele>131.837891</ele>
        <time>2013-08-14T10:50:45Z</time>
      </trkpt>
      <trkpt lat="43.34609" lon="-0.50772">
        <ele>132.318604</ele>
        <time>2013-08-14T10:50:47Z</time>
      </trkpt>
      <trkpt lat="43.34614" lon="-0.50786">
        <ele>131.837891</ele>
        <time>2013-08-14T10:50:49Z</time>
      </trkpt>
      <trkpt lat="43.34631" lon="-0.50816">
        <ele>131.837891</ele>
        <time>2013-08-14T10:50:54Z</time>
      </trkpt>
      <trkpt lat="43.3467" lon="-0.50865">
        <ele>131.3573</ele>
        <time>2013-08-14T10:51:03Z</time>
      </trkpt>
      <trkpt lat="43.347" lon="-0.50923">
        <ele>131.3573</ele>
        <time>2013-08-14T10:51:12Z</time>
      </trkpt>
      <trkpt lat="43.34727" lon="-0.50971">
        <ele>131.837891</ele>
        <time>2013-08-14T10:51:20Z</time>
      </trkpt>
      <trkpt lat="43.34744" lon="-0.51002">
        <ele>130.395996</ele>
        <time>2013-08-14T10:51:25Z</time>
      </trkpt>
      <trkpt lat="43.34751" lon="-0.51015">
        <ele>131.3573</ele>
        <time>2013-08-14T10:51:27Z</time>
      </trkpt>
      <trkpt lat="43.34748" lon="-0.51057">
        <ele>131.3573</ele>
        <time>2013-08-14T10:51:33Z</time>
      </trkpt>
      <trkpt lat="43.34742" lon="-0.5107">
        <ele>131.3573</ele>
        <time>2013-08-14T10:51:35Z</time>
      </trkpt>
      <trkpt lat="43.34737" lon="-0.51102">
        <ele>130.876709</ele>
        <time>2013-08-14T10:51:39Z</time>
      </trkpt>
      <trkpt lat="43.3473" lon="-0.51132">
        <ele>131.837891</ele>
        <time>2013-08-14T10:51:43Z</time>
      </trkpt>
      <trkpt lat="43.34698" lon="-0.51234">
        <ele>131.3573</ele>
        <time>2013-08-14T10:51:57Z</time>
      </trkpt>
      <trkpt lat="43.34709" lon="-0.51261">
        <ele>130.876709</ele>
        <time>2013-08-14T10:52:03Z</time>
      </trkpt>
      <trkpt lat="43.34789" lon="-0.51288">
        <ele>130.876709</ele>
        <time>2013-08-14T10:52:19Z</time>
      </trkpt>
      <trkpt lat="43.34866" lon="-0.51328">
        <ele>128.954102</ele>
        <time>2013-08-14T10:52:34Z</time>
      </trkpt>
      <trkpt lat="43.3488" lon="-0.5134">
        <ele>130.395996</ele>
        <time>2013-08-14T10:52:37Z</time>
      </trkpt>
      <trkpt lat="43.34973" lon="-0.51404">
        <ele>129.434692</ele>
        <time>2013-08-14T10:52:57Z</time>
      </trkpt>
      <trkpt lat="43.34992" lon="-0.51418">
        <ele>129.915283</ele>
        <time>2013-08-14T10:53:01Z</time>
      </trkpt>
      <trkpt lat="43.35028" lon="-0.51412">
        <ele>129.434692</ele>
        <time>2013-08-14T10:53:08Z</time>
      </trkpt>
      <trkpt lat="43.35038" lon="-0.51403">
        <ele>129.434692</ele>
        <time>2013-08-14T10:53:10Z</time>
      </trkpt>
      <trkpt lat="43.35067" lon="-0.51411">
        <ele>130.876709</ele>
        <time>2013-08-14T10:53:17Z</time>
      </trkpt>
      <trkpt lat="43.35071" lon="-0.51429">
        <ele>129.915283</ele>
        <time>2013-08-14T10:53:20Z</time>
      </trkpt>
      <trkpt lat="43.35075" lon="-0.51446">
        <ele>129.915283</ele>
        <time>2013-08-14T10:53:23Z</time>
      </trkpt>
      <trkpt lat="43.35083" lon="-0.51462">
        <ele>129.915283</ele>
        <time>2013-08-14T10:53:26Z</time>
      </trkpt>
      <trkpt lat="43.35115" lon="-0.51503">
        <ele>129.915283</ele>
        <time>2013-08-14T10:53:34Z</time>
      </trkpt>
      <trkpt lat="43.35135" lon="-0.51514">
        <ele>130.395996</ele>
        <time>2013-08-14T10:53:38Z</time>
      </trkpt>
      <trkpt lat="43.35146" lon="-0.51515">
        <ele>129.434692</ele>
        <time>2013-08-14T10:53:40Z</time>
      </trkpt>
      <trkpt lat="43.35189" lon="-0.51511">
        <ele>128.954102</ele>
        <time>2013-08-14T10:53:48Z</time>
      </trkpt>
      <trkpt lat="43.35238" lon="-0.51497">
        <ele>127.511963</ele>
        <time>2013-08-14T10:53:56Z</time>
      </trkpt>
      <trkpt lat="43.35243" lon="-0.51502">
        <ele>127.511963</ele>
        <time>2013-08-14T10:53:57Z</time>
      </trkpt>
      <trkpt lat="43.35306" lon="-0.51584">
        <ele>127.031372</ele>
        <time>2013-08-14T10:54:13Z</time>
      </trkpt>
      <trkpt lat="43.35314" lon="-0.51594">
        <ele>127.511963</ele>
        <time>2013-08-14T10:54:15Z</time>
      </trkpt>
      <trkpt lat="43.3533" lon="-0.51607">
        <ele>127.992554</ele>
        <time>2013-08-14T10:54:19Z</time>
      </trkpt>
      <trkpt lat="43.35339" lon="-0.51613">
        <ele>128.954102</ele>
        <time>2013-08-14T10:54:21Z</time>
      </trkpt>
      <trkpt lat="43.35357" lon="-0.51622">
        <ele>127.992554</ele>
        <time>2013-08-14T10:54:25Z</time>
      </trkpt>
      <trkpt lat="43.35406" lon="-0.51661">
        <ele>127.031372</ele>
        <time>2013-08-14T10:54:37Z</time>
      </trkpt>
      <trkpt lat="43.35436" lon="-0.51707">
        <ele>129.915283</ele>
        <time>2013-08-14T10:54:49Z</time>
      </trkpt>
      <trkpt lat="43.35441" lon="-0.51756">
        <ele>127.511963</ele>
        <time>2013-08-14T10:54:55Z</time>
      </trkpt>
      <trkpt lat="43.35464" lon="-0.51793">
        <ele>127.511963</ele>
        <time>2013-08-14T10:55:02Z</time>
      </trkpt>
      <trkpt lat="43.35474" lon="-0.51811">
        <ele>127.511963</ele>
        <time>2013-08-14T10:55:05Z</time>
      </trkpt>
      <trkpt lat="43.3554" lon="-0.51898">
        <ele>126.069946</ele>
        <time>2013-08-14T10:55:23Z</time>
      </trkpt>
      <trkpt lat="43.35546" lon="-0.51905">
        <ele>126.550659</ele>
        <time>2013-08-14T10:55:25Z</time>
      </trkpt>
      <trkpt lat="43.35554" lon="-0.5191">
        <ele>126.550659</ele>
        <time>2013-08-14T10:55:27Z</time>
      </trkpt>
      <trkpt lat="43.35571" lon="-0.5193">
        <ele>126.069946</ele>
        <time>2013-08-14T10:55:32Z</time>
      </trkpt>
      <trkpt lat="43.35619" lon="-0.52024">
        <ele>126.550659</ele>
        <time>2013-08-14T10:55:49Z</time>
      </trkpt>
      <trkpt lat="43.35645" lon="-0.52095">
        <ele>126.069946</ele>
        <time>2013-08-14T10:56:01Z</time>
      </trkpt>
      <trkpt lat="43.35643" lon="-0.52169">
        <ele>125.589355</ele>
        <time>2013-08-14T10:56:12Z</time>
      </trkpt>
      <trkpt lat="43.35609" lon="-0.522">
        <ele>124.628052</ele>
        <time>2013-08-14T10:56:21Z</time>
      </trkpt>
      <trkpt lat="43.35598" lon="-0.52197">
        <ele>125.108765</ele>
        <time>2013-08-14T10:56:23Z</time>
      </trkpt>
      <trkpt lat="43.35571" lon="-0.52187">
        <ele>125.589355</ele>
        <time>2013-08-14T10:56:29Z</time>
      </trkpt>
      <trkpt lat="43.35548" lon="-0.52192">
        <ele>126.550659</ele>
        <time>2013-08-14T10:56:34Z</time>
      </trkpt>
      <trkpt lat="43.35533" lon="-0.52205">
        <ele>126.550659</ele>
        <time>2013-08-14T10:56:38Z</time>
      </trkpt>
      <trkpt lat="43.35492" lon="-0.523">
        <ele>126.550659</ele>
        <time>2013-08-14T10:56:55Z</time>
      </trkpt>
      <trkpt lat="43.35468" lon="-0.52406">
        <ele>127.511963</ele>
        <time>2013-08-14T10:57:12Z</time>
      </trkpt>
      <trkpt lat="43.35469" lon="-0.5253">
        <ele>126.069946</ele>
        <time>2013-08-14T10:57:32Z</time>
      </trkpt>
      <trkpt lat="43.35486" lon="-0.52656">
        <ele>126.069946</ele>
        <time>2013-08-14T10:57:53Z</time>
      </trkpt>
      <trkpt lat="43.35497" lon="-0.52705">
        <ele>126.069946</ele>
        <time>2013-08-14T10:58:01Z</time>
      </trkpt>
      <trkpt lat="43.35512" lon="-0.52811">
        <ele>125.108765</ele>
        <time>2013-08-14T10:58:19Z</time>
      </trkpt>
      <trkpt lat="43.35509" lon="-0.52918">
        <ele>124.628052</ele>
        <time>2013-08-14T10:58:37Z</time>
      </trkpt>
      <trkpt lat="43.35516" lon="-0.53024">
        <ele>124.628052</ele>
        <time>2013-08-14T10:58:56Z</time>
      </trkpt>
      <trkpt lat="43.35547" lon="-0.53124">
        <ele>124.628052</ele>
        <time>2013-08-14T10:59:14Z</time>
      </trkpt>
      <trkpt lat="43.35572" lon="-0.53246">
        <ele>124.628052</ele>
        <time>2013-08-14T10:59:34Z</time>
      </trkpt>
      <trkpt lat="43.35616" lon="-0.53348">
        <ele>123.666748</ele>
        <time>2013-08-14T10:59:52Z</time>
      </trkpt>
      <trkpt lat="43.35678" lon="-0.53459">
        <ele>122.705444</ele>
        <time>2013-08-14T11:00:13Z</time>
      </trkpt>
      <trkpt lat="43.35693" lon="-0.53494">
        <ele>122.705444</ele>
        <time>2013-08-14T11:00:19Z</time>
      </trkpt>
      <trkpt lat="43.35707" lon="-0.5358">
        <ele>122.224731</ele>
        <time>2013-08-14T11:00:34Z</time>
      </trkpt>
      <trkpt lat="43.35716" lon="-0.53693">
        <ele>121.744141</ele>
        <time>2013-08-14T11:00:51Z</time>
      </trkpt>
      <trkpt lat="43.3572" lon="-0.53712">
        <ele>121.744141</ele>
        <time>2013-08-14T11:00:54Z</time>
      </trkpt>
      <trkpt lat="43.35737" lon="-0.53755">
        <ele>121.744141</ele>
        <time>2013-08-14T11:01:01Z</time>
      </trkpt>
      <trkpt lat="43.35796" lon="-0.5385">
        <ele>121.744141</ele>
        <time>2013-08-14T11:01:19Z</time>
      </trkpt>
      <trkpt lat="43.35859" lon="-0.53936">
        <ele>121.744141</ele>
        <time>2013-08-14T11:01:36Z</time>
      </trkpt>
      <trkpt lat="43.35885" lon="-0.54031">
        <ele>121.744141</ele>
        <time>2013-08-14T11:01:51Z</time>
      </trkpt>
      <trkpt lat="43.35894" lon="-0.54078">
        <ele>120.782837</ele>
        <time>2013-08-14T11:01:58Z</time>
      </trkpt>
      <trkpt lat="43.35908" lon="-0.54114">
        <ele>121.26355</ele>
        <time>2013-08-14T11:02:04Z</time>
      </trkpt>
      <trkpt lat="43.35951" lon="-0.54153">
        <ele>120.302124</ele>
        <time>2013-08-14T11:02:14Z</time>
      </trkpt>
      <trkpt lat="43.36007" lon="-0.54224">
        <ele>120.782837</ele>
        <time>2013-08-14T11:02:29Z</time>
      </trkpt>
      <trkpt lat="43.3602" lon="-0.54252">
        <ele>120.782837</ele>
        <time>2013-08-14T11:02:34Z</time>
      </trkpt>
      <trkpt lat="43.36024" lon="-0.54336">
        <ele>121.744141</ele>
        <time>2013-08-14T11:02:47Z</time>
      </trkpt>
      <trkpt lat="43.36018" lon="-0.5446">
        <ele>123.666748</ele>
        <time>2013-08-14T11:03:05Z</time>
      </trkpt>
      <trkpt lat="43.36014" lon="-0.54556">
        <ele>122.705444</ele>
        <time>2013-08-14T11:03:21Z</time>
      </trkpt>
      <trkpt lat="43.36008" lon="-0.54697">
        <ele>123.666748</ele>
        <time>2013-08-14T11:03:43Z</time>
      </trkpt>
      <trkpt lat="43.36003" lon="-0.54839">
        <ele>123.186157</ele>
        <time>2013-08-14T11:04:04Z</time>
      </trkpt>
      <trkpt lat="43.35998" lon="-0.5496">
        <ele>122.224731</ele>
        <time>2013-08-14T11:04:23Z</time>
      </trkpt>
      <trkpt lat="43.35991" lon="-0.55099">
        <ele>122.705444</ele>
        <time>2013-08-14T11:04:44Z</time>
      </trkpt>
      <trkpt lat="43.35988" lon="-0.55181">
        <ele>121.744141</ele>
        <time>2013-08-14T11:04:56Z</time>
      </trkpt>
      <trkpt lat="43.3601" lon="-0.55263">
        <ele>121.26355</ele>
        <time>2013-08-14T11:05:09Z</time>
      </trkpt>
      <trkpt lat="43.36002" lon="-0.55305">
        <ele>121.744141</ele>
        <time>2013-08-14T11:05:17Z</time>
      </trkpt>
      <trkpt lat="43.35997" lon="-0.55329">
        <ele>122.705444</ele>
        <time>2013-08-14T11:05:21Z</time>
      </trkpt>
      <trkpt lat="43.35967" lon="-0.55373">
        <ele>122.224731</ele>
        <time>2013-08-14T11:05:31Z</time>
      </trkpt>
      <trkpt lat="43.35941" lon="-0.55404">
        <ele>122.705444</ele>
        <time>2013-08-14T11:05:39Z</time>
      </trkpt>
      <trkpt lat="43.35934" lon="-0.55509">
        <ele>122.224731</ele>
        <time>2013-08-14T11:05:55Z</time>
      </trkpt>
      <trkpt lat="43.35906" lon="-0.55665">
        <ele>121.26355</ele>
        <time>2013-08-14T11:06:19Z</time>
      </trkpt>
      <trkpt lat="43.35884" lon="-0.55784">
        <ele>121.744141</ele>
        <time>2013-08-14T11:06:38Z</time>
      </trkpt>
      <trkpt lat="43.35855" lon="-0.55944">
        <ele>122.224731</ele>
        <time>2013-08-14T11:07:02Z</time>
      </trkpt>
      <trkpt lat="43.35843" lon="-0.56018">
        <ele>119.821411</ele>
        <time>2013-08-14T11:07:13Z</time>
      </trkpt>
      <trkpt lat="43.3583" lon="-0.56108">
        <ele>120.302124</ele>
        <time>2013-08-14T11:07:26Z</time>
      </trkpt>
      <trkpt lat="43.35854" lon="-0.56222">
        <ele>120.302124</ele>
        <time>2013-08-14T11:07:43Z</time>
      </trkpt>
      <trkpt lat="43.35837" lon="-0.56294">
        <ele>120.302124</ele>
        <time>2013-08-14T11:07:54Z</time>
      </trkpt>
      <trkpt lat="43.3583" lon="-0.56329">
        <ele>120.302124</ele>
        <time>2013-08-14T11:07:59Z</time>
      </trkpt>
      <trkpt lat="43.35828" lon="-0.56357">
        <ele>118.860107</ele>
        <time>2013-08-14T11:08:03Z</time>
      </trkpt>
      <trkpt lat="43.35821" lon="-0.56379">
        <ele>119.34082</ele>
        <time>2013-08-14T11:08:13Z</time>
      </trkpt>
      <trkpt lat="43.35821" lon="-0.56377">
        <ele>119.34082</ele>
        <time>2013-08-14T11:08:45Z</time>
      </trkpt>
      <trkpt lat="43.35821" lon="-0.5638">
        <ele>118.379395</ele>
        <time>2013-08-14T11:08:47Z</time>
      </trkpt>
      <trkpt lat="43.35822" lon="-0.56387">
        <ele>118.860107</ele>
        <time>2013-08-14T11:08:51Z</time>
      </trkpt>
      <trkpt lat="43.35829" lon="-0.56438">
        <ele>119.34082</ele>
        <time>2013-08-14T11:09:01Z</time>
      </trkpt>
      <trkpt lat="43.35826" lon="-0.56493">
        <ele>119.34082</ele>
        <time>2013-08-14T11:09:09Z</time>
      </trkpt>
      <trkpt lat="43.35829" lon="-0.5652">
        <ele>118.860107</ele>
        <time>2013-08-14T11:09:13Z</time>
      </trkpt>
      <trkpt lat="43.35837" lon="-0.56553">
        <ele>119.821411</ele>
        <time>2013-08-14T11:09:18Z</time>
      </trkpt>
      <trkpt lat="43.35841" lon="-0.56609">
        <ele>118.379395</ele>
        <time>2013-08-14T11:09:26Z</time>
      </trkpt>
      <trkpt lat="43.3586" lon="-0.56737">
        <ele>119.34082</ele>
        <time>2013-08-14T11:09:44Z</time>
      </trkpt>
      <trkpt lat="43.35881" lon="-0.56875">
        <ele>119.34082</ele>
        <time>2013-08-14T11:10:04Z</time>
      </trkpt>
      <trkpt lat="43.35907" lon="-0.57047">
        <ele>118.379395</ele>
        <time>2013-08-14T11:10:28Z</time>
      </trkpt>
      <trkpt lat="43.35927" lon="-0.57187">
        <ele>119.34082</ele>
        <time>2013-08-14T11:10:47Z</time>
      </trkpt>
      <trkpt lat="43.35898" lon="-0.57316">
        <ele>117.898804</ele>
        <time>2013-08-14T11:11:05Z</time>
      </trkpt>
      <trkpt lat="43.3586" lon="-0.57449">
        <ele>118.860107</ele>
        <time>2013-08-14T11:11:24Z</time>
      </trkpt>
      <trkpt lat="43.35817" lon="-0.57595">
        <ele>117.898804</ele>
        <time>2013-08-14T11:11:45Z</time>
      </trkpt>
      <trkpt lat="43.35778" lon="-0.57733">
        <ele>117.898804</ele>
        <time>2013-08-14T11:12:06Z</time>
      </trkpt>
      <trkpt lat="43.35733" lon="-0.57896">
        <ele>118.379395</ele>
        <time>2013-08-14T11:12:31Z</time>
      </trkpt>
      <trkpt lat="43.35687" lon="-0.58063">
        <ele>117.898804</ele>
        <time>2013-08-14T11:12:55Z</time>
      </trkpt>
      <trkpt lat="43.35657" lon="-0.58174">
        <ele>116.9375</ele>
        <time>2013-08-14T11:13:11Z</time>
      </trkpt>
      <trkpt lat="43.35655" lon="-0.58203">
        <ele>117.898804</ele>
        <time>2013-08-14T11:13:15Z</time>
      </trkpt>
      <trkpt lat="43.35668" lon="-0.58271">
        <ele>116.456787</ele>
        <time>2013-08-14T11:13:29Z</time>
      </trkpt>
      <trkpt lat="43.35668" lon="-0.58276">
        <ele>117.418213</ele>
        <time>2013-08-14T11:13:31Z</time>
      </trkpt>
      <trkpt lat="43.35652" lon="-0.58284">
        <ele>117.418213</ele>
        <time>2013-08-14T11:13:36Z</time>
      </trkpt>
      <trkpt lat="43.3556" lon="-0.58281">
        <ele>116.456787</ele>
        <time>2013-08-14T11:13:54Z</time>
      </trkpt>
      <trkpt lat="43.35443" lon="-0.58282">
        <ele>116.9375</ele>
        <time>2013-08-14T11:14:14Z</time>
      </trkpt>
      <trkpt lat="43.35297" lon="-0.58282">
        <ele>116.9375</ele>
        <time>2013-08-14T11:14:38Z</time>
      </trkpt>
      <trkpt lat="43.3517" lon="-0.58285">
        <ele>118.379395</ele>
        <time>2013-08-14T11:14:58Z</time>
      </trkpt>
      <trkpt lat="43.35035" lon="-0.58278">
        <ele>118.860107</ele>
        <time>2013-08-14T11:15:18Z</time>
      </trkpt>
      <trkpt lat="43.349" lon="-0.58279">
        <ele>119.34082</ele>
        <time>2013-08-14T11:15:38Z</time>
      </trkpt>
      <trkpt lat="43.34811" lon="-0.58281">
        <ele>119.34082</ele>
        <time>2013-08-14T11:15:51Z</time>
      </trkpt>
      <trkpt lat="43.34725" lon="-0.58282">
        <ele>119.34082</ele>
        <time>2013-08-14T11:16:04Z</time>
      </trkpt>
      <trkpt lat="43.34678" lon="-0.58284">
        <ele>119.34082</ele>
        <time>2013-08-14T11:16:12Z</time>
      </trkpt>
      <trkpt lat="43.34634" lon="-0.58288">
        <ele>120.302124</ele>
        <time>2013-08-14T11:16:20Z</time>
      </trkpt>
      <trkpt lat="43.34606" lon="-0.58285">
        <ele>119.34082</ele>
        <time>2013-08-14T11:16:25Z</time>
      </trkpt>
      <trkpt lat="43.34553" lon="-0.58291">
        <ele>120.302124</ele>
        <time>2013-08-14T11:16:36Z</time>
      </trkpt>
      <trkpt lat="43.34508" lon="-0.58292">
        <ele>120.782837</ele>
        <time>2013-08-14T11:16:45Z</time>
      </trkpt>
      <trkpt lat="43.34497" lon="-0.58291">
        <ele>120.782837</ele>
        <time>2013-08-14T11:16:47Z</time>
      </trkpt>
      <trkpt lat="43.34482" lon="-0.58292">
        <ele>121.26355</ele>
        <time>2013-08-14T11:16:50Z</time>
      </trkpt>
      <trkpt lat="43.34431" lon="-0.58297">
        <ele>120.782837</ele>
        <time>2013-08-14T11:17:01Z</time>
      </trkpt>
      <trkpt lat="43.34412" lon="-0.58299">
        <ele>120.302124</ele>
        <time>2013-08-14T11:17:05Z</time>
      </trkpt>
      <trkpt lat="43.34392" lon="-0.58297">
        <ele>120.782837</ele>
        <time>2013-08-14T11:17:09Z</time>
      </trkpt>
      <trkpt lat="43.34346" lon="-0.58293">
        <ele>120.782837</ele>
        <time>2013-08-14T11:17:18Z</time>
      </trkpt>
      <trkpt lat="43.34336" lon="-0.58264">
        <ele>120.302124</ele>
        <time>2013-08-14T11:17:23Z</time>
      </trkpt>
      <trkpt lat="43.34335" lon="-0.58249">
        <ele>120.302124</ele>
        <time>2013-08-14T11:17:25Z</time>
      </trkpt>
      <trkpt lat="43.34337" lon="-0.58229">
        <ele>120.302124</ele>
        <time>2013-08-14T11:17:28Z</time>
      </trkpt>
      <trkpt lat="43.34335" lon="-0.58208">
        <ele>119.34082</ele>
        <time>2013-08-14T11:17:31Z</time>
      </trkpt>
      <trkpt lat="43.34341" lon="-0.5811">
        <ele>120.782837</ele>
        <time>2013-08-14T11:17:46Z</time>
      </trkpt>
      <trkpt lat="43.34341" lon="-0.58083">
        <ele>121.26355</ele>
        <time>2013-08-14T11:17:50Z</time>
      </trkpt>
      <trkpt lat="43.3433" lon="-0.58046">
        <ele>121.26355</ele>
        <time>2013-08-14T11:17:56Z</time>
      </trkpt>
      <trkpt lat="43.34267" lon="-0.57953">
        <ele>121.744141</ele>
        <time>2013-08-14T11:18:15Z</time>
      </trkpt>
      <trkpt lat="43.34245" lon="-0.57908">
        <ele>120.782837</ele>
        <time>2013-08-14T11:18:23Z</time>
      </trkpt>
      <trkpt lat="43.3424" lon="-0.57891">
        <ele>120.782837</ele>
        <time>2013-08-14T11:18:26Z</time>
      </trkpt>
      <trkpt lat="43.34238" lon="-0.57784">
        <ele>122.224731</ele>
        <time>2013-08-14T11:18:44Z</time>
      </trkpt>
      <trkpt lat="43.34254" lon="-0.57656">
        <ele>122.705444</ele>
        <time>2013-08-14T11:19:05Z</time>
      </trkpt>
      <trkpt lat="43.34271" lon="-0.57571">
        <ele>124.628052</ele>
        <time>2013-08-14T11:19:22Z</time>
      </trkpt>
      <trkpt lat="43.34239" lon="-0.57548">
        <ele>124.628052</ele>
        <time>2013-08-14T11:19:36Z</time>
      </trkpt>
      <trkpt lat="43.34168" lon="-0.57555">
        <ele>126.069946</ele>
        <time>2013-08-14T11:19:53Z</time>
      </trkpt>
      <trkpt lat="43.34098" lon="-0.57549">
        <ele>127.031372</ele>
        <time>2013-08-14T11:20:09Z</time>
      </trkpt>
      <trkpt lat="43.34062" lon="-0.57555">
        <ele>126.069946</ele>
        <time>2013-08-14T11:20:17Z</time>
      </trkpt>
      <trkpt lat="43.33965" lon="-0.57544">
        <ele>125.108765</ele>
        <time>2013-08-14T11:20:36Z</time>
      </trkpt>
      <trkpt lat="43.33862" lon="-0.57554">
        <ele>125.108765</ele>
        <time>2013-08-14T11:20:58Z</time>
      </trkpt>
      <trkpt lat="43.3377" lon="-0.57527">
        <ele>125.589355</ele>
        <time>2013-08-14T11:21:19Z</time>
      </trkpt>
      <trkpt lat="43.33688" lon="-0.57493">
        <ele>126.550659</ele>
        <time>2013-08-14T11:21:40Z</time>
      </trkpt>
      <trkpt lat="43.33613" lon="-0.57432">
        <ele>126.550659</ele>
        <time>2013-08-14T11:21:59Z</time>
      </trkpt>
      <trkpt lat="43.3351" lon="-0.57352">
        <ele>128.954102</ele>
        <time>2013-08-14T11:22:25Z</time>
      </trkpt>
      <trkpt lat="43.33491" lon="-0.57335">
        <ele>129.434692</ele>
        <time>2013-08-14T11:22:30Z</time>
      </trkpt>
      <trkpt lat="43.3342" lon="-0.57258">
        <ele>131.3573</ele>
        <time>2013-08-14T11:22:52Z</time>
      </trkpt>
      <trkpt lat="43.33373" lon="-0.57263">
        <ele>130.876709</ele>
        <time>2013-08-14T11:23:04Z</time>
      </trkpt>
      <trkpt lat="43.33308" lon="-0.57245">
        <ele>130.395996</ele>
        <time>2013-08-14T11:23:17Z</time>
      </trkpt>
      <trkpt lat="43.33232" lon="-0.57228">
        <ele>129.915283</ele>
        <time>2013-08-14T11:23:32Z</time>
      </trkpt>
      <trkpt lat="43.3315" lon="-0.57203">
        <ele>129.434692</ele>
        <time>2013-08-14T11:23:49Z</time>
      </trkpt>
      <trkpt lat="43.33133" lon="-0.57183">
        <ele>129.915283</ele>
        <time>2013-08-14T11:23:54Z</time>
      </trkpt>
      <trkpt lat="43.33112" lon="-0.57169">
        <ele>129.915283</ele>
        <time>2013-08-14T11:24:00Z</time>
      </trkpt>
      <trkpt lat="43.3303" lon="-0.57161">
        <ele>129.915283</ele>
        <time>2013-08-14T11:24:17Z</time>
      </trkpt>
      <trkpt lat="43.32955" lon="-0.57142">
        <ele>129.434692</ele>
        <time>2013-08-14T11:24:32Z</time>
      </trkpt>
      <trkpt lat="43.32875" lon="-0.57109">
        <ele>130.876709</ele>
        <time>2013-08-14T11:24:48Z</time>
      </trkpt>
      <trkpt lat="43.32783" lon="-0.57061">
        <ele>130.876709</ele>
        <time>2013-08-14T11:25:07Z</time>
      </trkpt>
      <trkpt lat="43.32728" lon="-0.57052">
        <ele>132.799316</ele>
        <time>2013-08-14T11:25:19Z</time>
      </trkpt>
      <trkpt lat="43.32635" lon="-0.56998">
        <ele>131.837891</ele>
        <time>2013-08-14T11:25:39Z</time>
      </trkpt>
      <trkpt lat="43.32549" lon="-0.56969">
        <ele>130.395996</ele>
        <time>2013-08-14T11:25:56Z</time>
      </trkpt>
      <trkpt lat="43.32523" lon="-0.56967">
        <ele>130.876709</ele>
        <time>2013-08-14T11:26:01Z</time>
      </trkpt>
      <trkpt lat="43.32499" lon="-0.56956">
        <ele>131.3573</ele>
        <time>2013-08-14T11:26:06Z</time>
      </trkpt>
      <trkpt lat="43.32393" lon="-0.56867">
        <ele>132.318604</ele>
        <time>2013-08-14T11:26:30Z</time>
      </trkpt>
      <trkpt lat="43.32324" lon="-0.56798">
        <ele>134.241211</ele>
        <time>2013-08-14T11:26:48Z</time>
      </trkpt>
      <trkpt lat="43.32279" lon="-0.56773">
        <ele>137.125244</ele>
        <time>2013-08-14T11:27:01Z</time>
      </trkpt>
      <trkpt lat="43.32277" lon="-0.56773">
        <ele>136.644653</ele>
        <time>2013-08-14T11:27:02Z</time>
      </trkpt>
      <trkpt lat="43.32268" lon="-0.56829">
        <ele>137.125244</ele>
        <time>2013-08-14T11:27:12Z</time>
      </trkpt>
      <trkpt lat="43.32254" lon="-0.56955">
        <ele>134.721924</ele>
        <time>2013-08-14T11:27:28Z</time>
      </trkpt>
      <trkpt lat="43.32239" lon="-0.57088">
        <ele>133.279907</ele>
        <time>2013-08-14T11:27:45Z</time>
      </trkpt>
      <trkpt lat="43.32238" lon="-0.57101">
        <ele>133.279907</ele>
        <time>2013-08-14T11:27:47Z</time>
      </trkpt>
      <trkpt lat="43.32234" lon="-0.57122">
        <ele>133.760498</ele>
        <time>2013-08-14T11:27:50Z</time>
      </trkpt>
      <trkpt lat="43.32217" lon="-0.57126">
        <ele>133.279907</ele>
        <time>2013-08-14T11:27:55Z</time>
      </trkpt>
      <trkpt lat="43.3218" lon="-0.57061">
        <ele>132.799316</ele>
        <time>2013-08-14T11:28:11Z</time>
      </trkpt>
      <trkpt lat="43.32181" lon="-0.57062">
        <ele>132.799316</ele>
        <time>2013-08-14T11:28:38Z</time>
      </trkpt>
      <trkpt lat="43.32181" lon="-0.57062">
        <ele>133.279907</ele>
        <time>2013-08-14T11:28:44Z</time>
      </trkpt>
    </trkseg>
  </trk>
</gpx>